<?xml version='1.0' encoding='UTF-8'?><gpx version="1.1" creator="JPX - https://github.com/jenetics/jpx" xmlns="http://www.topografix.com/GPX/1/1"><trk><trkseg><trkpt lat="45.96290416004739" lon="12.385382415335796"><ele>78.0</ele><time>2026-04-23T10:39:16.999Z</time></trkpt><trkpt lat="45.962956231174985" lon="12.38532042092621"><ele>78.0</ele><time>2026-04-23T10:39:20.999Z</time></trkpt><trkpt lat="45.96300383606791" lon="12.385237057559667"><ele>78.0</ele><time>2026-04-23T10:39:23.999Z</time></trkpt><trkpt lat="45.9630435145024" lon="12.385142020238385"><ele>78.0</ele><time>2026-04-23T10:39:26.999Z</time></trkpt><trkpt lat="45.96308972648599" lon="12.385039447899446"><ele>78.0</ele><time>2026-04-23T10:39:29.999Z</time></trkpt><trkpt lat="45.963123884956325" lon="12.384932544230377"><ele>78.0</ele><time>2026-04-23T10:39:32.998Z</time></trkpt><trkpt lat="45.963151100248226" lon="12.384845295920764"><ele>78.0</ele><time>2026-04-23T10:39:34.998Z</time></trkpt><trkpt lat="45.96317722656097" lon="12.38475267304915"><ele>78.0</ele><time>2026-04-23T10:39:36.998Z</time></trkpt><trkpt lat="45.963200074929276" lon="12.38466790055045"><ele>78.0</ele><time>2026-04-23T10:39:38.998Z</time></trkpt><trkpt lat="45.963228887797705" lon="12.384579553818376"><ele>78.0</ele><time>2026-04-23T10:39:41.001Z</time></trkpt><trkpt lat="45.96326562900021" lon="12.3844542727514"><ele>78.0</ele><time>2026-04-23T10:39:44.001Z</time></trkpt><trkpt lat="45.963288330654414" lon="12.384369033497922"><ele>78.0</ele><time>2026-04-23T10:39:46.001Z</time></trkpt><trkpt lat="45.96331834766304" lon="12.384278010108613"><ele>78.0</ele><time>2026-04-23T10:39:48.001Z</time></trkpt><trkpt lat="45.96334953439752" lon="12.384188594784248"><ele>78.57142857142857</ele><time>2026-04-23T10:39:50.001Z</time></trkpt><trkpt lat="45.96337062858404" lon="12.384092171740514"><ele>79.14285714285714</ele><time>2026-04-23T10:39:52.001Z</time></trkpt><trkpt lat="45.963398390979755" lon="12.38399345632375"><ele>79.71428571428571</ele><time>2026-04-23T10:39:54.001Z</time></trkpt><trkpt lat="45.96342734178835" lon="12.383907556380938"><ele>80.28571428571428</ele><time>2026-04-23T10:39:56.001Z</time></trkpt><trkpt lat="45.963451155411384" lon="12.383812839886124"><ele>80.85714285714286</ele><time>2026-04-23T10:39:58.001Z</time></trkpt><trkpt lat="45.96347723533454" lon="12.383723993558155"><ele>81.42857142857142</ele><time>2026-04-23T10:40:00.001Z</time></trkpt><trkpt lat="45.96350659528401" lon="12.383632086835691"><ele>82.0</ele><time>2026-04-23T10:40:02Z</time></trkpt><trkpt lat="45.963533933052005" lon="12.38354606680344"><ele>81.99999999999999</ele><time>2026-04-23T10:40:04Z</time></trkpt><trkpt lat="45.96355817299729" lon="12.38344928806559"><ele>82.0</ele><time>2026-04-23T10:40:06Z</time></trkpt><trkpt lat="45.96358761772959" lon="12.383354173513622"><ele>82.0</ele><time>2026-04-23T10:40:08Z</time></trkpt><trkpt lat="45.963605585011635" lon="12.383264509216925"><ele>82.0</ele><time>2026-04-23T10:40:10Z</time></trkpt><trkpt lat="45.963636801188194" lon="12.383179704438835"><ele>82.0</ele><time>2026-04-23T10:40:12Z</time></trkpt><trkpt lat="45.96366046024235" lon="12.383087740783022"><ele>81.99999999999999</ele><time>2026-04-23T10:40:14Z</time></trkpt><trkpt lat="45.963688284635595" lon="12.383002696358878"><ele>82.0</ele><time>2026-04-23T10:40:16Z</time></trkpt><trkpt lat="45.96371177110239" lon="12.382918398628037"><ele>81.71428571428571</ele><time>2026-04-23T10:40:18Z</time></trkpt><trkpt lat="45.96373556232485" lon="12.382833443985655"><ele>81.42857142857143</ele><time>2026-04-23T10:40:20Z</time></trkpt><trkpt lat="45.9637684235012" lon="12.38275381275481"><ele>81.14285714285714</ele><time>2026-04-23T10:40:22Z</time></trkpt><trkpt lat="45.9637952436939" lon="12.382669876012718"><ele>80.85714285714286</ele><time>2026-04-23T10:40:24Z</time></trkpt><trkpt lat="45.963819512562445" lon="12.38257504954656"><ele>80.57142857142857</ele><time>2026-04-23T10:40:25.999Z</time></trkpt><trkpt lat="45.9638469539633" lon="12.382489728505776"><ele>80.28571428571428</ele><time>2026-04-23T10:40:27.999Z</time></trkpt><trkpt lat="45.963873696268536" lon="12.38239699377947"><ele>80.0</ele><time>2026-04-23T10:40:29.999Z</time></trkpt><trkpt lat="45.96389952414763" lon="12.382310290918983"><ele>80.0</ele><time>2026-04-23T10:40:31.999Z</time></trkpt><trkpt lat="45.96392551434822" lon="12.382220792139796"><ele>80.0</ele><time>2026-04-23T10:40:33.999Z</time></trkpt><trkpt lat="45.96395077634969" lon="12.382129919393211"><ele>80.0</ele><time>2026-04-23T10:40:35.999Z</time></trkpt><trkpt lat="45.9639738290767" lon="12.382042554373305"><ele>80.0</ele><time>2026-04-23T10:40:37.999Z</time></trkpt><trkpt lat="45.96399864920984" lon="12.381953978047957"><ele>80.0</ele><time>2026-04-23T10:40:39.999Z</time></trkpt><trkpt lat="45.96402307216612" lon="12.381868018128394"><ele>80.0</ele><time>2026-04-23T10:40:41.999Z</time></trkpt><trkpt lat="45.96405534596188" lon="12.38174113454732"><ele>80.0</ele><time>2026-04-23T10:40:44.999Z</time></trkpt><trkpt lat="45.96408989369031" lon="12.381616463637432"><ele>80.42857142857143</ele><time>2026-04-23T10:40:47.999Z</time></trkpt><trkpt lat="45.964112825851764" lon="12.381531552218988"><ele>80.85714285714286</ele><time>2026-04-23T10:40:49.999Z</time></trkpt><trkpt lat="45.964133414727954" lon="12.381444224159726"><ele>81.28571428571428</ele><time>2026-04-23T10:40:51.999Z</time></trkpt><trkpt lat="45.964156152861584" lon="12.381357859044504"><ele>81.71428571428572</ele><time>2026-04-23T10:40:53.998Z</time></trkpt><trkpt lat="45.96417836255428" lon="12.381269524733863"><ele>82.14285714285715</ele><time>2026-04-23T10:40:55.998Z</time></trkpt><trkpt lat="45.96420105919667" lon="12.381179309477563"><ele>82.57142857142857</ele><time>2026-04-23T10:40:57.998Z</time></trkpt><trkpt lat="45.964221992717015" lon="12.381090143891159"><ele>83.0</ele><time>2026-04-23T10:40:59.998Z</time></trkpt><trkpt lat="45.96424178826382" lon="12.381000307426637"><ele>83.42857142857143</ele><time>2026-04-23T10:41:01.998Z</time></trkpt><trkpt lat="45.96426176657827" lon="12.38090828708394"><ele>83.85714285714286</ele><time>2026-04-23T10:41:03.998Z</time></trkpt><trkpt lat="45.96428078658944" lon="12.380817260247014"><ele>84.28571428571429</ele><time>2026-04-23T10:41:05.998Z</time></trkpt><trkpt lat="45.96429918051746" lon="12.380729542303246"><ele>84.71428571428572</ele><time>2026-04-23T10:41:07.998Z</time></trkpt><trkpt lat="45.964319061813775" lon="12.380641935652948"><ele>85.14285714285714</ele><time>2026-04-23T10:41:09.998Z</time></trkpt><trkpt lat="45.964343504663525" lon="12.38050974427842"><ele>85.57142857142858</ele><time>2026-04-23T10:41:12.998Z</time></trkpt><trkpt lat="45.96436264781346" lon="12.380419618941758"><ele>86.0</ele><time>2026-04-23T10:41:14.998Z</time></trkpt><trkpt lat="45.9643794431814" lon="12.38033017656129"><ele>86.00000000000001</ele><time>2026-04-23T10:41:16.998Z</time></trkpt><trkpt lat="45.96439911982812" lon="12.380241678690593"><ele>86.0</ele><time>2026-04-23T10:41:18.998Z</time></trkpt><trkpt lat="45.96441823011298" lon="12.380148561657563"><ele>86.0</ele><time>2026-04-23T10:41:20.998Z</time></trkpt><trkpt lat="45.964438001679945" lon="12.380056672819668"><ele>86.0</ele><time>2026-04-23T10:41:22.998Z</time></trkpt><trkpt lat="45.96445738277118" lon="12.379967322422706"><ele>86.0</ele><time>2026-04-23T10:41:24.998Z</time></trkpt><trkpt lat="45.96447590146665" lon="12.379877900431286"><ele>86.00000000000001</ele><time>2026-04-23T10:41:26.998Z</time></trkpt><trkpt lat="45.96449467120979" lon="12.37978794773958"><ele>86.0</ele><time>2026-04-23T10:41:28.998Z</time></trkpt><trkpt lat="45.96452161568623" lon="12.379656314035248"><ele>86.0</ele><time>2026-04-23T10:41:31.998Z</time></trkpt><trkpt lat="45.96454939655436" lon="12.379530123921924"><ele>86.0</ele><time>2026-04-23T10:41:34.998Z</time></trkpt><trkpt lat="45.964581337915135" lon="12.379402548704917"><ele>86.0</ele><time>2026-04-23T10:41:37.998Z</time></trkpt><trkpt lat="45.96461327371271" lon="12.37928202671522"><ele>86.0</ele><time>2026-04-23T10:41:40.998Z</time></trkpt><trkpt lat="45.964645852114835" lon="12.379156206364552"><ele>86.0</ele><time>2026-04-23T10:41:43.998Z</time></trkpt><trkpt lat="45.96467998104168" lon="12.379033844252008"><ele>86.0</ele><time>2026-04-23T10:41:46.999Z</time></trkpt><trkpt lat="45.96471187699124" lon="12.378909487694884"><ele>86.0</ele><time>2026-04-23T10:41:49.999Z</time></trkpt><trkpt lat="45.96474617819624" lon="12.378786716014318"><ele>86.0</ele><time>2026-04-23T10:41:52.999Z</time></trkpt><trkpt lat="45.96478055562627" lon="12.378667553457285"><ele>86.0</ele><time>2026-04-23T10:41:55.999Z</time></trkpt><trkpt lat="45.964817722088604" lon="12.378549523249964"><ele>86.0</ele><time>2026-04-23T10:41:58.999Z</time></trkpt><trkpt lat="45.96485128057824" lon="12.378426597325962"><ele>86.33333333333334</ele><time>2026-04-23T10:42:01.999Z</time></trkpt><trkpt lat="45.96488718204872" lon="12.378303839854958"><ele>86.66666666666667</ele><time>2026-04-23T10:42:04.999Z</time></trkpt><trkpt lat="45.96491261034293" lon="12.37821996762134"><ele>87.0</ele><time>2026-04-23T10:42:06.999Z</time></trkpt><trkpt lat="45.96493798185916" lon="12.378131842965114"><ele>87.33333333333333</ele><time>2026-04-23T10:42:08.999Z</time></trkpt><trkpt lat="45.964972265370754" lon="12.37800787806647"><ele>87.66666666666666</ele><time>2026-04-23T10:42:11.999Z</time></trkpt><trkpt lat="45.964998457753595" lon="12.377923866274925"><ele>88.0</ele><time>2026-04-23T10:42:13.999Z</time></trkpt><trkpt lat="45.96503271335196" lon="12.377803498300663"><ele>88.28571428571429</ele><time>2026-04-23T10:42:16.999Z</time></trkpt><trkpt lat="45.96506827214699" lon="12.377681528480842"><ele>88.57142857142857</ele><time>2026-04-23T10:42:19.999Z</time></trkpt><trkpt lat="45.965089695967116" lon="12.377594427134364"><ele>88.85714285714286</ele><time>2026-04-23T10:42:21.999Z</time></trkpt><trkpt lat="45.96511368265725" lon="12.377505779121037"><ele>89.14285714285714</ele><time>2026-04-23T10:42:23.999Z</time></trkpt><trkpt lat="45.965137530458385" lon="12.37742006553139"><ele>89.42857142857143</ele><time>2026-04-23T10:42:25.999Z</time></trkpt><trkpt lat="45.96516422550461" lon="12.37733617078079"><ele>89.71428571428571</ele><time>2026-04-23T10:42:27.999Z</time></trkpt><trkpt lat="45.9651877706978" lon="12.377250417156091"><ele>90.0</ele><time>2026-04-23T10:42:29.999Z</time></trkpt><trkpt lat="45.96522567214979" lon="12.377129646001915"><ele>90.0</ele><time>2026-04-23T10:42:32.999Z</time></trkpt><trkpt lat="45.96526171598134" lon="12.377007406419837"><ele>90.0</ele><time>2026-04-23T10:42:35.999Z</time></trkpt><trkpt lat="45.96529816946722" lon="12.376883915386813"><ele>90.0</ele><time>2026-04-23T10:42:38.999Z</time></trkpt><trkpt lat="45.965323736243235" lon="12.376799762914063"><ele>90.0</ele><time>2026-04-23T10:42:40.999Z</time></trkpt><trkpt lat="45.96534804484906" lon="12.376713728379054"><ele>90.0</ele><time>2026-04-23T10:42:42.999Z</time></trkpt><trkpt lat="45.96537241757529" lon="12.376627790437523"><ele>90.0</ele><time>2026-04-23T10:42:44.999Z</time></trkpt><trkpt lat="45.96540873153779" lon="12.376505498821844"><ele>90.0</ele><time>2026-04-23T10:42:47.999Z</time></trkpt><trkpt lat="45.96543275807608" lon="12.37642033146881"><ele>90.0</ele><time>2026-04-23T10:42:49.999Z</time></trkpt><trkpt lat="45.96546102898327" lon="12.376336624230749"><ele>90.0</ele><time>2026-04-23T10:42:51.999Z</time></trkpt><trkpt lat="45.96548930923341" lon="12.376246369648575"><ele>90.0</ele><time>2026-04-23T10:42:53.999Z</time></trkpt><trkpt lat="45.96551728489278" lon="12.376151330529913"><ele>90.0</ele><time>2026-04-23T10:42:55.998Z</time></trkpt><trkpt lat="45.96554400295375" lon="12.376063393107719"><ele>90.0</ele><time>2026-04-23T10:42:57.998Z</time></trkpt><trkpt lat="45.96557265130846" lon="12.375973636943908"><ele>90.0</ele><time>2026-04-23T10:42:59.998Z</time></trkpt><trkpt lat="45.965597421621425" lon="12.375882050497069"><ele>90.0</ele><time>2026-04-23T10:43:01.998Z</time></trkpt><trkpt lat="45.9656208813405" lon="12.375793399394116"><ele>90.0</ele><time>2026-04-23T10:43:03.998Z</time></trkpt><trkpt lat="45.965649590610184" lon="12.37570606851984"><ele>90.0</ele><time>2026-04-23T10:43:05.998Z</time></trkpt><trkpt lat="45.96567477427148" lon="12.37561530613057"><ele>90.0</ele><time>2026-04-23T10:43:07.998Z</time></trkpt><trkpt lat="45.96569907947747" lon="12.375527700127503"><ele>90.0</ele><time>2026-04-23T10:43:09.998Z</time></trkpt><trkpt lat="45.965724069929934" lon="12.37544265049669"><ele>90.0</ele><time>2026-04-23T10:43:11.998Z</time></trkpt><trkpt lat="45.96574951346883" lon="12.375356196133149"><ele>90.0</ele><time>2026-04-23T10:43:13.998Z</time></trkpt><trkpt lat="45.965774481422905" lon="12.375267373501734"><ele>90.0</ele><time>2026-04-23T10:43:15.998Z</time></trkpt><trkpt lat="45.96579907536377" lon="12.375179785210648"><ele>90.0</ele><time>2026-04-23T10:43:17.998Z</time></trkpt><trkpt lat="45.96582456942817" lon="12.3750895380896"><ele>90.0</ele><time>2026-04-23T10:43:19.998Z</time></trkpt><trkpt lat="45.96585195962995" lon="12.375000781881054"><ele>90.0</ele><time>2026-04-23T10:43:21.998Z</time></trkpt><trkpt lat="45.96587759493138" lon="12.374914357699852"><ele>90.0</ele><time>2026-04-23T10:43:23.998Z</time></trkpt><trkpt lat="45.96590352461812" lon="12.374828516387032"><ele>90.0</ele><time>2026-04-23T10:43:25.998Z</time></trkpt><trkpt lat="45.965927500341444" lon="12.374743068806998"><ele>90.0</ele><time>2026-04-23T10:43:27.998Z</time></trkpt><trkpt lat="45.96595336441391" lon="12.37465925579457"><ele>89.85714285714285</ele><time>2026-04-23T10:43:29.998Z</time></trkpt><trkpt lat="45.965977667708074" lon="12.374572836499558"><ele>89.71428571428572</ele><time>2026-04-23T10:43:31.998Z</time></trkpt><trkpt lat="45.966002339518276" lon="12.37448730811401"><ele>89.57142857142857</ele><time>2026-04-23T10:43:33.998Z</time></trkpt><trkpt lat="45.96602740032756" lon="12.374401940550445"><ele>89.42857142857142</ele><time>2026-04-23T10:43:35.998Z</time></trkpt><trkpt lat="45.9660557893389" lon="12.374318531944887"><ele>89.28571428571428</ele><time>2026-04-23T10:43:37.998Z</time></trkpt><trkpt lat="45.96609175461792" lon="12.374196434306707"><ele>89.14285714285714</ele><time>2026-04-23T10:43:40.998Z</time></trkpt><trkpt lat="45.96611429971909" lon="12.374111203708054"><ele>89.0</ele><time>2026-04-23T10:43:42.998Z</time></trkpt><trkpt lat="45.966140094535895" lon="12.374026963101084"><ele>89.0</ele><time>2026-04-23T10:43:44.998Z</time></trkpt><trkpt lat="45.966164968946515" lon="12.37394098322728"><ele>89.0</ele><time>2026-04-23T10:43:46.998Z</time></trkpt><trkpt lat="45.966188958213344" lon="12.373856332778775"><ele>89.0</ele><time>2026-04-23T10:43:48.998Z</time></trkpt><trkpt lat="45.96622350921636" lon="12.373734745286905"><ele>89.0</ele><time>2026-04-23T10:43:51.997Z</time></trkpt><trkpt lat="45.96625833753784" lon="12.373609665737156"><ele>89.0</ele><time>2026-04-23T10:43:54.999Z</time></trkpt><trkpt lat="45.96629548263388" lon="12.373485156042797"><ele>89.0</ele><time>2026-04-23T10:43:57.999Z</time></trkpt><trkpt lat="45.96632187875894" lon="12.373397423388612"><ele>89.28571428571428</ele><time>2026-04-23T10:43:59.999Z</time></trkpt><trkpt lat="45.96634774202045" lon="12.373306910432"><ele>89.57142857142857</ele><time>2026-04-23T10:44:01.999Z</time></trkpt><trkpt lat="45.96637397245763" lon="12.373215195504823"><ele>89.85714285714286</ele><time>2026-04-23T10:44:03.999Z</time></trkpt><trkpt lat="45.96640030800615" lon="12.373125415100152"><ele>90.14285714285714</ele><time>2026-04-23T10:44:05.999Z</time></trkpt><trkpt lat="45.966424535377186" lon="12.373034988983724"><ele>90.42857142857143</ele><time>2026-04-23T10:44:07.999Z</time></trkpt><trkpt lat="45.96645014477268" lon="12.372946190897338"><ele>90.71428571428571</ele><time>2026-04-23T10:44:09.999Z</time></trkpt><trkpt lat="45.96647341751639" lon="12.372859283717387"><ele>91.0</ele><time>2026-04-23T10:44:11.999Z</time></trkpt><trkpt lat="45.96649952998933" lon="12.372773250417971"><ele>91.57142857142857</ele><time>2026-04-23T10:44:13.999Z</time></trkpt><trkpt lat="45.966521338873825" lon="12.372685350449794"><ele>92.14285714285714</ele><time>2026-04-23T10:44:15.999Z</time></trkpt><trkpt lat="45.96654947809837" lon="12.37259671182158"><ele>92.71428571428572</ele><time>2026-04-23T10:44:17.999Z</time></trkpt><trkpt lat="45.96657739451641" lon="12.372505286399397"><ele>93.28571428571428</ele><time>2026-04-23T10:44:19.999Z</time></trkpt><trkpt lat="45.9666036008472" lon="12.372416714118325"><ele>93.85714285714286</ele><time>2026-04-23T10:44:21.999Z</time></trkpt><trkpt lat="45.96663247291287" lon="12.372327228142638"><ele>94.42857142857143</ele><time>2026-04-23T10:44:23.999Z</time></trkpt><trkpt lat="45.96665871402179" lon="12.372238560631624"><ele>95.0</ele><time>2026-04-23T10:44:25.999Z</time></trkpt><trkpt lat="45.966684646807764" lon="12.372147809016566"><ele>94.83333333333334</ele><time>2026-04-23T10:44:27.999Z</time></trkpt><trkpt lat="45.966714838425126" lon="12.372061147638817"><ele>94.66666666666667</ele><time>2026-04-23T10:44:29.999Z</time></trkpt><trkpt lat="45.96673960086154" lon="12.371976542436155"><ele>94.5</ele><time>2026-04-23T10:44:31.999Z</time></trkpt><trkpt lat="45.966744204659044" lon="12.371849544518048"><ele>94.33333333333333</ele><time>2026-04-23T10:44:34.999Z</time></trkpt><trkpt lat="45.966728471458644" lon="12.371757274523429"><ele>94.16666666666666</ele><time>2026-04-23T10:44:36.999Z</time></trkpt><trkpt lat="45.96669901882455" lon="12.371647918767641"><ele>94.0</ele><time>2026-04-23T10:44:38.999Z</time></trkpt><trkpt lat="45.966654536802196" lon="12.37151668394052"><ele>94.4</ele><time>2026-04-23T10:44:40.999Z</time></trkpt><trkpt lat="45.966610395599524" lon="12.371368016390093"><ele>94.80000000000001</ele><time>2026-04-23T10:44:42.999Z</time></trkpt><trkpt lat="45.96658391856144" lon="12.371227017745252"><ele>95.19999999999999</ele><time>2026-04-23T10:44:44.999Z</time></trkpt><trkpt lat="45.96660369852074" lon="12.371085929701882"><ele>95.6</ele><time>2026-04-23T10:44:46.999Z</time></trkpt><trkpt lat="45.96660920731485" lon="12.370946454189301"><ele>96.0</ele><time>2026-04-23T10:44:48.999Z</time></trkpt><trkpt lat="45.966590251846725" lon="12.37084008365285"><ele>95.99999999999999</ele><time>2026-04-23T10:44:50.999Z</time></trkpt><trkpt lat="45.96657467976368" lon="12.370744750384885"><ele>96.0</ele><time>2026-04-23T10:44:52.999Z</time></trkpt><trkpt lat="45.96655521962777" lon="12.37064704276465"><ele>96.0</ele><time>2026-04-23T10:44:54.999Z</time></trkpt><trkpt lat="45.96653577669503" lon="12.370546875134202"><ele>96.0</ele><time>2026-04-23T10:44:56.999Z</time></trkpt><trkpt lat="45.96651688262933" lon="12.370439957583418"><ele>96.0</ele><time>2026-04-23T10:44:58.999Z</time></trkpt><trkpt lat="45.966508314995345" lon="12.37033172530814"><ele>95.99999999999999</ele><time>2026-04-23T10:45:00.999Z</time></trkpt><trkpt lat="45.966490857883386" lon="12.370233024468307"><ele>96.0</ele><time>2026-04-23T10:45:02.999Z</time></trkpt><trkpt lat="45.96648576791171" lon="12.370139987270631"><ele>96.14285714285714</ele><time>2026-04-23T10:45:04.999Z</time></trkpt><trkpt lat="45.96647280821883" lon="12.370049257749145"><ele>96.28571428571428</ele><time>2026-04-23T10:45:06.999Z</time></trkpt><trkpt lat="45.96646655575673" lon="12.369953411776073"><ele>96.42857142857142</ele><time>2026-04-23T10:45:08.999Z</time></trkpt><trkpt lat="45.96646492465913" lon="12.369852796922437"><ele>96.57142857142857</ele><time>2026-04-23T10:45:10.999Z</time></trkpt><trkpt lat="45.96648156947045" lon="12.36975816927377"><ele>96.71428571428572</ele><time>2026-04-23T10:45:12.999Z</time></trkpt><trkpt lat="45.96650685776359" lon="12.369636946903434"><ele>96.85714285714285</ele><time>2026-04-23T10:45:15.998Z</time></trkpt><trkpt lat="45.96653211118252" lon="12.369515792279973"><ele>97.0</ele><time>2026-04-23T10:45:18.998Z</time></trkpt><trkpt lat="45.9665500943704" lon="12.369389553784098"><ele>97.0</ele><time>2026-04-23T10:45:21.998Z</time></trkpt><trkpt lat="45.966545739089405" lon="12.369259665203499"><ele>97.0</ele><time>2026-04-23T10:45:24.998Z</time></trkpt><trkpt lat="45.9665401507267" lon="12.369159864192477"><ele>97.0</ele><time>2026-04-23T10:45:26.998Z</time></trkpt><trkpt lat="45.96652261362823" lon="12.369069958516027"><ele>97.0</ele><time>2026-04-23T10:45:28.998Z</time></trkpt><trkpt lat="45.966513856025934" lon="12.368979593581859"><ele>97.0</ele><time>2026-04-23T10:45:30.998Z</time></trkpt><trkpt lat="45.96649263608915" lon="12.368871993522896"><ele>97.0</ele><time>2026-04-23T10:45:32.998Z</time></trkpt><trkpt lat="45.96647339603437" lon="12.368780438103695"><ele>97.0</ele><time>2026-04-23T10:45:34.998Z</time></trkpt><trkpt lat="45.96645297868948" lon="12.368677211497586"><ele>97.00000000000001</ele><time>2026-04-23T10:45:36.998Z</time></trkpt><trkpt lat="45.966415879474155" lon="12.368579601685825"><ele>97.0</ele><time>2026-04-23T10:45:38.998Z</time></trkpt><trkpt lat="45.96638168448588" lon="12.368477223457292"><ele>97.0</ele><time>2026-04-23T10:45:40.998Z</time></trkpt><trkpt lat="45.96634014486266" lon="12.368380472423715"><ele>97.0</ele><time>2026-04-23T10:45:42.998Z</time></trkpt><trkpt lat="45.966299050945544" lon="12.368282301393242"><ele>97.00000000000001</ele><time>2026-04-23T10:45:44.998Z</time></trkpt><trkpt lat="45.966255082895955" lon="12.368183990399855"><ele>97.0</ele><time>2026-04-23T10:45:46.998Z</time></trkpt><trkpt lat="45.96621012224971" lon="12.368084836821517"><ele>97.33333333333334</ele><time>2026-04-23T10:45:48.998Z</time></trkpt><trkpt lat="45.96616895152609" lon="12.367986980251326"><ele>97.66666666666667</ele><time>2026-04-23T10:45:50.998Z</time></trkpt><trkpt lat="45.96612446331358" lon="12.367893367320155"><ele>98.0</ele><time>2026-04-23T10:45:52.998Z</time></trkpt><trkpt lat="45.966086633364064" lon="12.36779014106697"><ele>98.33333333333334</ele><time>2026-04-23T10:45:54.998Z</time></trkpt><trkpt lat="45.96604017526655" lon="12.367688884451685"><ele>98.66666666666667</ele><time>2026-04-23T10:45:56.998Z</time></trkpt><trkpt lat="45.96601094381059" lon="12.367599115249503"><ele>99.0</ele><time>2026-04-23T10:45:58.999Z</time></trkpt><trkpt lat="45.96597975177654" lon="12.367510476663208"><ele>99.0</ele><time>2026-04-23T10:46:00.999Z</time></trkpt><trkpt lat="45.96593023046106" lon="12.36741314570453"><ele>99.0</ele><time>2026-04-23T10:46:02.999Z</time></trkpt><trkpt lat="45.96588679709479" lon="12.367327186526751"><ele>99.0</ele><time>2026-04-23T10:46:04.999Z</time></trkpt><trkpt lat="45.965841467264575" lon="12.367234123611723"><ele>99.0</ele><time>2026-04-23T10:46:06.999Z</time></trkpt><trkpt lat="45.965793469707236" lon="12.367141712149122"><ele>99.0</ele><time>2026-04-23T10:46:08.999Z</time></trkpt><trkpt lat="45.965748368988876" lon="12.367046472424011"><ele>99.0</ele><time>2026-04-23T10:46:10.999Z</time></trkpt><trkpt lat="45.96571418281517" lon="12.36694068741628"><ele>98.83333333333333</ele><time>2026-04-23T10:46:12.999Z</time></trkpt><trkpt lat="45.96569827942402" lon="12.366831902189844"><ele>98.66666666666666</ele><time>2026-04-23T10:46:14.999Z</time></trkpt><trkpt lat="45.96571575967955" lon="12.366717758267463"><ele>98.5</ele><time>2026-04-23T10:46:16.999Z</time></trkpt><trkpt lat="45.9657283778565" lon="12.366606013702848"><ele>98.33333333333333</ele><time>2026-04-23T10:46:18.999Z</time></trkpt><trkpt lat="45.96575752714883" lon="12.36649532516509"><ele>98.16666666666666</ele><time>2026-04-23T10:46:20.999Z</time></trkpt><trkpt lat="45.96578294601527" lon="12.366391450714413"><ele>98.0</ele><time>2026-04-23T10:46:22.999Z</time></trkpt><trkpt lat="45.96581278435261" lon="12.366300532284097"><ele>98.0</ele><time>2026-04-23T10:46:24.999Z</time></trkpt><trkpt lat="45.965843069777435" lon="12.366201527604185"><ele>98.0</ele><time>2026-04-23T10:46:28.999Z</time></trkpt><trkpt lat="45.96589049473168" lon="12.366107023875582"><ele>98.0</ele><time>2026-04-23T10:46:31.999Z</time></trkpt><trkpt lat="45.96593521795104" lon="12.366034301699631"><ele>98.0</ele><time>2026-04-23T10:46:33.999Z</time></trkpt><trkpt lat="45.96597701643365" lon="12.365953723935899"><ele>98.0</ele><time>2026-04-23T10:46:35.999Z</time></trkpt><trkpt lat="45.96601052129485" lon="12.365865909852939"><ele>98.0</ele><time>2026-04-23T10:46:37.999Z</time></trkpt><trkpt lat="45.96605523031203" lon="12.365785446071392"><ele>98.0</ele><time>2026-04-23T10:46:39.999Z</time></trkpt><trkpt lat="45.966096597583935" lon="12.365711118841329"><ele>98.14285714285714</ele><time>2026-04-23T10:46:41.999Z</time></trkpt><trkpt lat="45.96614290009837" lon="12.365631365088499"><ele>98.28571428571428</ele><time>2026-04-23T10:46:43.999Z</time></trkpt><trkpt lat="45.96618949423454" lon="12.365548649197283"><ele>98.42857142857143</ele><time>2026-04-23T10:46:45.999Z</time></trkpt><trkpt lat="45.96623553681909" lon="12.365468494230894"><ele>98.57142857142857</ele><time>2026-04-23T10:46:47.999Z</time></trkpt><trkpt lat="45.9662830154817" lon="12.365389713015407"><ele>98.71428571428571</ele><time>2026-04-23T10:46:49.999Z</time></trkpt><trkpt lat="45.96633659327234" lon="12.365318244246005"><ele>98.85714285714286</ele><time>2026-04-23T10:46:51.999Z</time></trkpt><trkpt lat="45.96638539903483" lon="12.365242968214531"><ele>99.0</ele><time>2026-04-23T10:46:53.999Z</time></trkpt><trkpt lat="45.96643845083499" lon="12.365165225780858"><ele>99.33333333333333</ele><time>2026-04-23T10:46:55.999Z</time></trkpt><trkpt lat="45.966496714007825" lon="12.365083918515548"><ele>99.66666666666666</ele><time>2026-04-23T10:46:57.999Z</time></trkpt><trkpt lat="45.966557227320884" lon="12.365013233009226"><ele>100.0</ele><time>2026-04-23T10:46:59.999Z</time></trkpt><trkpt lat="45.96661480256261" lon="12.364944350771381"><ele>100.33333333333333</ele><time>2026-04-23T10:47:01.999Z</time></trkpt><trkpt lat="45.96667868558344" lon="12.364882538972598"><ele>100.66666666666666</ele><time>2026-04-23T10:47:03.999Z</time></trkpt><trkpt lat="45.96673250507571" lon="12.364812424315321"><ele>101.0</ele><time>2026-04-23T10:47:05.999Z</time></trkpt><trkpt lat="45.9667905309637" lon="12.364752026409027"><ele>101.49999999999999</ele><time>2026-04-23T10:47:07.999Z</time></trkpt><trkpt lat="45.966851022729145" lon="12.364693012095694"><ele>102.0</ele><time>2026-04-23T10:47:09.999Z</time></trkpt><trkpt lat="45.96690911487184" lon="12.364626393844636"><ele>102.5</ele><time>2026-04-23T10:47:11.999Z</time></trkpt><trkpt lat="45.966971374591566" lon="12.364557996756648"><ele>103.0</ele><time>2026-04-23T10:47:13.999Z</time></trkpt><trkpt lat="45.96702988445016" lon="12.364478416715926"><ele>103.49999999999999</ele><time>2026-04-23T10:47:15.998Z</time></trkpt><trkpt lat="45.967078437389986" lon="12.364393984364789"><ele>104.0</ele><time>2026-04-23T10:47:17.998Z</time></trkpt><trkpt lat="45.96712284576155" lon="12.364302769362371"><ele>103.99999999999999</ele><time>2026-04-23T10:47:19.998Z</time></trkpt><trkpt lat="45.96716812357128" lon="12.364207683554115"><ele>104.0</ele><time>2026-04-23T10:47:21.998Z</time></trkpt><trkpt lat="45.96720875231958" lon="12.364116733406862"><ele>104.0</ele><time>2026-04-23T10:47:23.998Z</time></trkpt><trkpt lat="45.9672497674328" lon="12.364025630761803"><ele>104.0</ele><time>2026-04-23T10:47:25.998Z</time></trkpt><trkpt lat="45.96729097175444" lon="12.36393013289437"><ele>103.99999999999999</ele><time>2026-04-23T10:47:27.998Z</time></trkpt><trkpt lat="45.96733235209519" lon="12.363836950274097"><ele>104.0</ele><time>2026-04-23T10:47:29.998Z</time></trkpt><trkpt lat="45.96736647311033" lon="12.36374821003896"><ele>103.83333333333333</ele><time>2026-04-23T10:47:31.998Z</time></trkpt><trkpt lat="45.96741450029788" lon="12.36365123019085"><ele>103.66666666666666</ele><time>2026-04-23T10:47:33.998Z</time></trkpt><trkpt lat="45.96745284636073" lon="12.363555265242198"><ele>103.5</ele><time>2026-04-23T10:47:35.998Z</time></trkpt><trkpt lat="45.967512555785554" lon="12.363478810649545"><ele>103.33333333333334</ele><time>2026-04-23T10:47:37.998Z</time></trkpt><trkpt lat="45.967608481717974" lon="12.363425779964077"><ele>103.16666666666667</ele><time>2026-04-23T10:47:40.998Z</time></trkpt><trkpt lat="45.96768525645415" lon="12.363377399194766"><ele>103.0</ele><time>2026-04-23T10:47:42.998Z</time></trkpt><trkpt lat="45.96775612574435" lon="12.363342532164426"><ele>103.50000000000001</ele><time>2026-04-23T10:47:44.998Z</time></trkpt><trkpt lat="45.967819869967556" lon="12.36329478730511"><ele>104.0</ele><time>2026-04-23T10:47:46.998Z</time></trkpt><trkpt lat="45.967896444965696" lon="12.363250786237867"><ele>104.5</ele><time>2026-04-23T10:47:48.998Z</time></trkpt><trkpt lat="45.967978355316106" lon="12.363214097932886"><ele>105.0</ele><time>2026-04-23T10:47:50.998Z</time></trkpt><trkpt lat="45.968055085345995" lon="12.36320124636418"><ele>105.50000000000001</ele><time>2026-04-23T10:47:52.998Z</time></trkpt><trkpt lat="45.968128913305414" lon="12.363143946365492"><ele>106.0</ele><time>2026-04-23T10:47:54.998Z</time></trkpt><trkpt lat="45.96820195648373" lon="12.363102927971168"><ele>106.00000000000001</ele><time>2026-04-23T10:47:56.998Z</time></trkpt><trkpt lat="45.96826754522271" lon="12.363059722882369"><ele>106.0</ele><time>2026-04-23T10:47:58.998Z</time></trkpt><trkpt lat="45.96833996766859" lon="12.363019098785307"><ele>106.0</ele><time>2026-04-23T10:48:00.998Z</time></trkpt><trkpt lat="45.96841590322262" lon="12.362975533611948"><ele>106.0</ele><time>2026-04-23T10:48:02.998Z</time></trkpt><trkpt lat="45.96848648813491" lon="12.362941170160283"><ele>106.00000000000001</ele><time>2026-04-23T10:48:04.999Z</time></trkpt><trkpt lat="45.96855768455268" lon="12.36289530583665"><ele>106.0</ele><time>2026-04-23T10:48:06.999Z</time></trkpt><trkpt lat="45.968632604107846" lon="12.362883290572462"><ele>106.66666666666667</ele><time>2026-04-23T10:48:08.999Z</time></trkpt><trkpt lat="45.968702534639704" lon="12.362842594811633"><ele>107.33333333333334</ele><time>2026-04-23T10:48:10.999Z</time></trkpt><trkpt lat="45.96877628747676" lon="12.362813241250198"><ele>108.0</ele><time>2026-04-23T10:48:12.999Z</time></trkpt><trkpt lat="45.96884257994246" lon="12.362790052493532"><ele>108.66666666666666</ele><time>2026-04-23T10:48:14.999Z</time></trkpt><trkpt lat="45.96890821845917" lon="12.36275761286987"><ele>109.33333333333333</ele><time>2026-04-23T10:48:16.999Z</time></trkpt><trkpt lat="45.968981709015736" lon="12.362733536323123"><ele>110.0</ele><time>2026-04-23T10:48:18.999Z</time></trkpt><trkpt lat="45.969089627749135" lon="12.362754443331553"><ele>109.99999999999999</ele><time>2026-04-23T10:48:21.999Z</time></trkpt><trkpt lat="45.9691627414176" lon="12.362734401690696"><ele>110.0</ele><time>2026-04-23T10:48:23.999Z</time></trkpt><trkpt lat="45.96920903569752" lon="12.362643178292183"><ele>110.0</ele><time>2026-04-23T10:48:25.999Z</time></trkpt><trkpt lat="45.96921482636152" lon="12.362502174810587"><ele>110.0</ele><time>2026-04-23T10:48:27.999Z</time></trkpt><trkpt lat="45.969243060603475" lon="12.36237513160809"><ele>109.99999999999999</ele><time>2026-04-23T10:48:29.999Z</time></trkpt><trkpt lat="45.969282896104815" lon="12.362266046021677"><ele>110.0</ele><time>2026-04-23T10:48:31.999Z</time></trkpt><trkpt lat="45.96931740710152" lon="12.362156139717273"><ele>109.99999999999999</ele><time>2026-04-23T10:48:33.999Z</time></trkpt><trkpt lat="45.969354703189644" lon="12.362051235325673"><ele>110.0</ele><time>2026-04-23T10:48:35.999Z</time></trkpt><trkpt lat="45.96940327276973" lon="12.361948270784499"><ele>110.0</ele><time>2026-04-23T10:48:37.999Z</time></trkpt><trkpt lat="45.969447925591425" lon="12.361855811731191"><ele>110.0</ele><time>2026-04-23T10:48:39.999Z</time></trkpt><trkpt lat="45.969496800259904" lon="12.361764276926111"><ele>109.99999999999999</ele><time>2026-04-23T10:48:41.999Z</time></trkpt><trkpt lat="45.96954988076627" lon="12.361664542799202"><ele>110.0</ele><time>2026-04-23T10:48:43.999Z</time></trkpt><trkpt lat="45.969614996444456" lon="12.361598232330005"><ele>109.99999999999999</ele><time>2026-04-23T10:48:45.999Z</time></trkpt><trkpt lat="45.969685482255436" lon="12.361530489993553"><ele>110.0</ele><time>2026-04-23T10:48:47.999Z</time></trkpt><trkpt lat="45.96975408791757" lon="12.361463647771766"><ele>110.0</ele><time>2026-04-23T10:48:49.999Z</time></trkpt><trkpt lat="45.96979139138615" lon="12.361366053014393"><ele>110.0</ele><time>2026-04-23T10:48:51.999Z</time></trkpt><trkpt lat="45.96978113882728" lon="12.361229060136086"><ele>109.99999999999999</ele><time>2026-04-23T10:48:53.999Z</time></trkpt><trkpt lat="45.96977982698233" lon="12.361082685014704"><ele>110.0</ele><time>2026-04-23T10:48:55.999Z</time></trkpt><trkpt lat="45.96978111245527" lon="12.360946041615914"><ele>110.0</ele><time>2026-04-23T10:48:57.999Z</time></trkpt><trkpt lat="45.96977775953516" lon="12.36081138528106"><ele>110.0</ele><time>2026-04-23T10:48:59.999Z</time></trkpt><trkpt lat="45.96977313022937" lon="12.360677790748209"><ele>110.0</ele><time>2026-04-23T10:49:01.999Z</time></trkpt><trkpt lat="45.96977071356973" lon="12.360540150466774"><ele>110.0</ele><time>2026-04-23T10:49:03.999Z</time></trkpt><trkpt lat="45.969775962686214" lon="12.36040735959192"><ele>110.0</ele><time>2026-04-23T10:49:05.999Z</time></trkpt><trkpt lat="45.96977856758191" lon="12.360266329178538"><ele>110.0</ele><time>2026-04-23T10:49:07.999Z</time></trkpt><trkpt lat="45.9697799834579" lon="12.360125159516192"><ele>110.0</ele><time>2026-04-23T10:49:09.999Z</time></trkpt><trkpt lat="45.9697888877396" lon="12.359986451805494"><ele>110.0</ele><time>2026-04-23T10:49:11.999Z</time></trkpt><trkpt lat="45.96979298073382" lon="12.3598576342171"><ele>110.0</ele><time>2026-04-23T10:49:13.999Z</time></trkpt><trkpt lat="45.969800475157825" lon="12.359710085377507"><ele>110.0</ele><time>2026-04-23T10:49:15.999Z</time></trkpt><trkpt lat="45.969810012410576" lon="12.359554149813437"><ele>110.0</ele><time>2026-04-23T10:49:17.999Z</time></trkpt><trkpt lat="45.96979998128509" lon="12.359421518528473"><ele>110.0</ele><time>2026-04-23T10:49:19.999Z</time></trkpt><trkpt lat="45.96980370200322" lon="12.359282271496305"><ele>110.0</ele><time>2026-04-23T10:49:21.999Z</time></trkpt><trkpt lat="45.96980570800461" lon="12.359138494381266"><ele>110.0</ele><time>2026-04-23T10:49:23.998Z</time></trkpt><trkpt lat="45.96982058679123" lon="12.359015122321566"><ele>110.0</ele><time>2026-04-23T10:49:25.998Z</time></trkpt><trkpt lat="45.969825717270936" lon="12.358881374721717"><ele>109.8</ele><time>2026-04-23T10:49:27.998Z</time></trkpt><trkpt lat="45.96982436157667" lon="12.358746716827858"><ele>109.6</ele><time>2026-04-23T10:49:29.998Z</time></trkpt><trkpt lat="45.969829649005575" lon="12.358609492280765"><ele>109.4</ele><time>2026-04-23T10:49:31.998Z</time></trkpt><trkpt lat="45.969832055160545" lon="12.358477519466552"><ele>109.2</ele><time>2026-04-23T10:49:33.998Z</time></trkpt><trkpt lat="45.96983013137805" lon="12.358353346780033"><ele>109.0</ele><time>2026-04-23T10:49:35.998Z</time></trkpt><trkpt lat="45.96983846829287" lon="12.358231969738748"><ele>109.00000000000001</ele><time>2026-04-23T10:49:37.998Z</time></trkpt><trkpt lat="45.96984106984547" lon="12.358123408868767"><ele>109.0</ele><time>2026-04-23T10:49:39.998Z</time></trkpt><trkpt lat="45.969819063097205" lon="12.358009139678737"><ele>109.0</ele><time>2026-04-23T10:49:41.998Z</time></trkpt><trkpt lat="45.969802378820056" lon="12.357890287534826"><ele>109.0</ele><time>2026-04-23T10:49:43.998Z</time></trkpt><trkpt lat="45.9697779438278" lon="12.357778322259058"><ele>109.00000000000001</ele><time>2026-04-23T10:49:45.998Z</time></trkpt><trkpt lat="45.969730332302426" lon="12.357673568316908"><ele>109.0</ele><time>2026-04-23T10:49:47.998Z</time></trkpt><trkpt lat="45.96966432324901" lon="12.357579754968665"><ele>109.00000000000001</ele><time>2026-04-23T10:49:49.998Z</time></trkpt><trkpt lat="45.969597636413575" lon="12.357492100289246"><ele>109.0</ele><time>2026-04-23T10:49:51.998Z</time></trkpt><trkpt lat="45.96954158696822" lon="12.357418832800208"><ele>109.0</ele><time>2026-04-23T10:49:53.998Z</time></trkpt><trkpt lat="45.969488472527956" lon="12.357328383502418"><ele>109.0</ele><time>2026-04-23T10:49:55.998Z</time></trkpt><trkpt lat="45.969413874374496" lon="12.357241379406892"><ele>109.00000000000001</ele><time>2026-04-23T10:49:57.998Z</time></trkpt><trkpt lat="45.96934555892277" lon="12.357142657210911"><ele>109.0</ele><time>2026-04-23T10:49:59.998Z</time></trkpt><trkpt lat="45.969270908699855" lon="12.357036756521849"><ele>109.0</ele><time>2026-04-23T10:50:01.998Z</time></trkpt><trkpt lat="45.969198740016544" lon="12.35692429658143"><ele>109.0</ele><time>2026-04-23T10:50:03.998Z</time></trkpt><trkpt lat="45.969122189569305" lon="12.356805892908477"><ele>109.0</ele><time>2026-04-23T10:50:05.998Z</time></trkpt><trkpt lat="45.96904033036028" lon="12.356685391128305"><ele>109.0</ele><time>2026-04-23T10:50:07.998Z</time></trkpt><trkpt lat="45.96896299365523" lon="12.356552409714032"><ele>109.00000000000001</ele><time>2026-04-23T10:50:09.999Z</time></trkpt><trkpt lat="45.96888062302476" lon="12.35642263633968"><ele>109.0</ele><time>2026-04-23T10:50:11.999Z</time></trkpt><trkpt lat="45.968811002501724" lon="12.356317584294708"><ele>109.0</ele><time>2026-04-23T10:50:13.999Z</time></trkpt><trkpt lat="45.96877226956954" lon="12.356239612198829"><ele>109.0</ele><time>2026-04-23T10:50:15.999Z</time></trkpt><trkpt lat="45.968730939760306" lon="12.356154140402934"><ele>109.00000000000001</ele><time>2026-04-23T10:50:18.999Z</time></trkpt><trkpt lat="45.968665829480315" lon="12.356080640848852"><ele>109.0</ele><time>2026-04-23T10:50:22.999Z</time></trkpt><trkpt lat="45.96862337303974" lon="12.356010816352205"><ele>109.00000000000001</ele><time>2026-04-23T10:50:24.999Z</time></trkpt><trkpt lat="45.96857654819703" lon="12.355933352276725"><ele>109.0</ele><time>2026-04-23T10:50:26.999Z</time></trkpt><trkpt lat="45.96852588071303" lon="12.355848700132574"><ele>109.0</ele><time>2026-04-23T10:50:28.999Z</time></trkpt><trkpt lat="45.968468249518764" lon="12.35575241344201"><ele>109.0</ele><time>2026-04-23T10:50:30.999Z</time></trkpt><trkpt lat="45.96840600690227" lon="12.355648422270155"><ele>109.00000000000001</ele><time>2026-04-23T10:50:32.999Z</time></trkpt><trkpt lat="45.96834443922269" lon="12.35554555873778"><ele>109.0</ele><time>2026-04-23T10:50:34.999Z</time></trkpt><trkpt lat="45.968288939221594" lon="12.355452832715699"><ele>105.6</ele><time>2026-04-23T10:50:36.999Z</time></trkpt><trkpt lat="45.968254660501024" lon="12.355336532613153"><ele>102.2</ele><time>2026-04-23T10:50:38.999Z</time></trkpt><trkpt lat="45.968193049470536" lon="12.355238224705651"><ele>98.8</ele><time>2026-04-23T10:50:40.999Z</time></trkpt><trkpt lat="45.96813120711677" lon="12.355135199258036"><ele>95.39999999999999</ele><time>2026-04-23T10:50:42.999Z</time></trkpt><trkpt lat="45.96806618574283" lon="12.35502843243916"><ele>92.0</ele><time>2026-04-23T10:50:44.999Z</time></trkpt><trkpt lat="45.96800345897879" lon="12.354926768772307"><ele>92.0</ele><time>2026-04-23T10:50:46.999Z</time></trkpt><trkpt lat="45.96794428081569" lon="12.354835526304146"><ele>92.0</ele><time>2026-04-23T10:50:48.999Z</time></trkpt><trkpt lat="45.96788839445139" lon="12.354738749280841"><ele>92.0</ele><time>2026-04-23T10:50:50.999Z</time></trkpt><trkpt lat="45.96783758542113" lon="12.354639562154574"><ele>92.0</ele><time>2026-04-23T10:50:52.999Z</time></trkpt><trkpt lat="45.9677664504288" lon="12.354568007377368"><ele>92.0</ele><time>2026-04-23T10:50:54.999Z</time></trkpt><trkpt lat="45.96773309688169" lon="12.354438039759042"><ele>92.0</ele><time>2026-04-23T10:50:56.999Z</time></trkpt><trkpt lat="45.96771407103713" lon="12.354315221596726"><ele>92.33333333333334</ele><time>2026-04-23T10:50:58.999Z</time></trkpt><trkpt lat="45.96778870874122" lon="12.35419990266905"><ele>92.66666666666667</ele><time>2026-04-23T10:51:00.999Z</time></trkpt><trkpt lat="45.96782236896343" lon="12.354085563371347"><ele>93.0</ele><time>2026-04-23T10:51:02.999Z</time></trkpt><trkpt lat="45.967877214228054" lon="12.354007287005983"><ele>93.33333333333333</ele><time>2026-04-23T10:51:04.999Z</time></trkpt><trkpt lat="45.96791912361723" lon="12.35392681255584"><ele>93.66666666666666</ele><time>2026-04-23T10:51:06.999Z</time></trkpt><trkpt lat="45.96797254973307" lon="12.35384917970142"><ele>94.0</ele><time>2026-04-23T10:51:08.999Z</time></trkpt><trkpt lat="45.96802505958087" lon="12.353770801077609"><ele>94.33333333333333</ele><time>2026-04-23T10:51:10.999Z</time></trkpt><trkpt lat="45.96807847148569" lon="12.353694000487005"><ele>94.66666666666666</ele><time>2026-04-23T10:51:12.999Z</time></trkpt><trkpt lat="45.9681433871571" lon="12.353582324293718"><ele>95.0</ele><time>2026-04-23T10:51:15.999Z</time></trkpt><trkpt lat="45.96819609685403" lon="12.353518317174283"><ele>95.33333333333333</ele><time>2026-04-23T10:51:17.999Z</time></trkpt><trkpt lat="45.96824347538689" lon="12.353442498981266"><ele>95.66666666666667</ele><time>2026-04-23T10:51:19.999Z</time></trkpt><trkpt lat="45.96829685443956" lon="12.353376127015089"><ele>96.0</ele><time>2026-04-23T10:51:21.999Z</time></trkpt><trkpt lat="45.96833975928426" lon="12.353303792551474"><ele>96.16666666666667</ele><time>2026-04-23T10:51:23.999Z</time></trkpt><trkpt lat="45.96839010196335" lon="12.353237287673286"><ele>96.33333333333334</ele><time>2026-04-23T10:51:25.999Z</time></trkpt><trkpt lat="45.9684350296873" lon="12.353158762329436"><ele>96.5</ele><time>2026-04-23T10:51:27.999Z</time></trkpt><trkpt lat="45.96848035454011" lon="12.353069922911443"><ele>96.66666666666667</ele><time>2026-04-23T10:51:29.999Z</time></trkpt><trkpt lat="45.968535635078254" lon="12.352994071095514"><ele>96.83333333333334</ele><time>2026-04-23T10:51:31.999Z</time></trkpt><trkpt lat="45.96859190408939" lon="12.352913272666996"><ele>97.0</ele><time>2026-04-23T10:51:33.999Z</time></trkpt><trkpt lat="45.96866431705496" lon="12.352823311546905"><ele>97.14285714285714</ele><time>2026-04-23T10:51:36.999Z</time></trkpt><trkpt lat="45.96872249732064" lon="12.35274540403697"><ele>97.28571428571429</ele><time>2026-04-23T10:51:38.999Z</time></trkpt><trkpt lat="45.968772372167365" lon="12.352679096633366"><ele>97.42857142857143</ele><time>2026-04-23T10:51:40.999Z</time></trkpt><trkpt lat="45.968816616197095" lon="12.352601069214362"><ele>97.57142857142857</ele><time>2026-04-23T10:51:42.999Z</time></trkpt><trkpt lat="45.968872879140484" lon="12.352532478742264"><ele>97.71428571428572</ele><time>2026-04-23T10:51:44.999Z</time></trkpt><trkpt lat="45.96891373435563" lon="12.352454642725162"><ele>97.85714285714286</ele><time>2026-04-23T10:51:46.999Z</time></trkpt><trkpt lat="45.9689667013263" lon="12.352381795318088"><ele>98.0</ele><time>2026-04-23T10:51:48.999Z</time></trkpt><trkpt lat="45.969024928069345" lon="12.352304883477508"><ele>97.99999999999999</ele><time>2026-04-23T10:51:50.999Z</time></trkpt><trkpt lat="45.969077690612764" lon="12.352225902623486"><ele>98.0</ele><time>2026-04-23T10:51:52.998Z</time></trkpt><trkpt lat="45.96913032034649" lon="12.352137571574412"><ele>98.0</ele><time>2026-04-23T10:51:54.998Z</time></trkpt><trkpt lat="45.969185486434874" lon="12.352055395416125"><ele>98.0</ele><time>2026-04-23T10:51:56.998Z</time></trkpt><trkpt lat="45.96924429194501" lon="12.351964651727096"><ele>97.99999999999999</ele><time>2026-04-23T10:51:58.998Z</time></trkpt><trkpt lat="45.969295872374936" lon="12.351887384783716"><ele>98.0</ele><time>2026-04-23T10:52:00.998Z</time></trkpt><trkpt lat="45.96934352941837" lon="12.351804056979741"><ele>97.99999999999999</ele><time>2026-04-23T10:52:03.998Z</time></trkpt><trkpt lat="45.969387080146014" lon="12.351695511190364"><ele>98.0</ele><time>2026-04-23T10:52:07.998Z</time></trkpt><trkpt lat="45.96935699900158" lon="12.351603137228084"><ele>98.0</ele><time>2026-04-23T10:52:09.998Z</time></trkpt><trkpt lat="45.96931150048182" lon="12.35150961257403"><ele>98.0</ele><time>2026-04-23T10:52:11.998Z</time></trkpt><trkpt lat="45.9692514290657" lon="12.351424305931669"><ele>97.99999999999999</ele><time>2026-04-23T10:52:13.998Z</time></trkpt><trkpt lat="45.96920092580158" lon="12.351338261398697"><ele>98.0</ele><time>2026-04-23T10:52:15.999Z</time></trkpt><trkpt lat="45.96914821988594" lon="12.351249246278089"><ele>98.16666666666666</ele><time>2026-04-23T10:52:17.999Z</time></trkpt><trkpt lat="45.96909637812798" lon="12.35115341794203"><ele>98.33333333333333</ele><time>2026-04-23T10:52:19.999Z</time></trkpt><trkpt lat="45.96904036292025" lon="12.351057825710889"><ele>98.5</ele><time>2026-04-23T10:52:21.999Z</time></trkpt><trkpt lat="45.968989573362535" lon="12.35096954465761"><ele>98.66666666666666</ele><time>2026-04-23T10:52:23.999Z</time></trkpt><trkpt lat="45.96894423483979" lon="12.350887478898258"><ele>98.83333333333333</ele><time>2026-04-23T10:52:25.999Z</time></trkpt><trkpt lat="45.96890070456154" lon="12.350803696295106"><ele>99.0</ele><time>2026-04-23T10:52:27.999Z</time></trkpt><trkpt lat="45.9688507074696" lon="12.350714895635758"><ele>99.0</ele><time>2026-04-23T10:52:29.999Z</time></trkpt><trkpt lat="45.96880219773543" lon="12.35062044580141"><ele>99.0</ele><time>2026-04-23T10:52:31.999Z</time></trkpt><trkpt lat="45.96874821969888" lon="12.350527487127572"><ele>99.0</ele><time>2026-04-23T10:52:33.999Z</time></trkpt><trkpt lat="45.96869469091471" lon="12.350432977429342"><ele>99.0</ele><time>2026-04-23T10:52:35.999Z</time></trkpt><trkpt lat="45.96864847460985" lon="12.350344770347014"><ele>99.0</ele><time>2026-04-23T10:52:37.999Z</time></trkpt><trkpt lat="45.96859554722217" lon="12.35024611590701"><ele>99.0</ele><time>2026-04-23T10:52:39.999Z</time></trkpt><trkpt lat="45.96855591052954" lon="12.35015514097501"><ele>99.0</ele><time>2026-04-23T10:52:41.999Z</time></trkpt><trkpt lat="45.96851142699124" lon="12.350059289663983"><ele>99.0</ele><time>2026-04-23T10:52:43.999Z</time></trkpt><trkpt lat="45.968471243126366" lon="12.349959995933444"><ele>99.0</ele><time>2026-04-23T10:52:45.999Z</time></trkpt><trkpt lat="45.96843111632371" lon="12.34985845209158"><ele>99.0</ele><time>2026-04-23T10:52:47.999Z</time></trkpt><trkpt lat="45.968389259438155" lon="12.349756874973727"><ele>99.0</ele><time>2026-04-23T10:52:49.999Z</time></trkpt><trkpt lat="45.96835641675735" lon="12.3496714023897"><ele>99.0</ele><time>2026-04-23T10:52:51.999Z</time></trkpt><trkpt lat="45.96831905934061" lon="12.349589694439256"><ele>98.80000000000001</ele><time>2026-04-23T10:52:53.999Z</time></trkpt><trkpt lat="45.96825356029846" lon="12.349499150508858"><ele>98.60000000000001</ele><time>2026-04-23T10:52:55.999Z</time></trkpt><trkpt lat="45.96819796529597" lon="12.349391446284729"><ele>98.4</ele><time>2026-04-23T10:52:57.999Z</time></trkpt><trkpt lat="45.96813806644496" lon="12.349286721565038"><ele>98.2</ele><time>2026-04-23T10:52:59.999Z</time></trkpt><trkpt lat="45.968086023307904" lon="12.349186896871792"><ele>98.0</ele><time>2026-04-23T10:53:01.999Z</time></trkpt><trkpt lat="45.96803270378278" lon="12.349087785338584"><ele>98.0</ele><time>2026-04-23T10:53:03.999Z</time></trkpt><trkpt lat="45.96797173517365" lon="12.348987482246612"><ele>98.0</ele><time>2026-04-23T10:53:05.999Z</time></trkpt><trkpt lat="45.96791625808539" lon="12.3488812685135"><ele>98.0</ele><time>2026-04-23T10:53:07.999Z</time></trkpt><trkpt lat="45.96785736977623" lon="12.34877783675048"><ele>98.0</ele><time>2026-04-23T10:53:09.999Z</time></trkpt><trkpt lat="45.96780187524731" lon="12.348677126622993"><ele>98.0</ele><time>2026-04-23T10:53:11.999Z</time></trkpt><trkpt lat="45.96774332814073" lon="12.348580475520345"><ele>97.99999999999999</ele><time>2026-04-23T10:53:13.999Z</time></trkpt><trkpt lat="45.96769037738304" lon="12.348478588608563"><ele>98.0</ele><time>2026-04-23T10:53:15.999Z</time></trkpt><trkpt lat="45.967637619976394" lon="12.3483824731314"><ele>98.0</ele><time>2026-04-23T10:53:17.999Z</time></trkpt><trkpt lat="45.967588246311855" lon="12.348288934718088"><ele>98.0</ele><time>2026-04-23T10:53:19.999Z</time></trkpt><trkpt lat="45.967545927480806" lon="12.348202442533898"><ele>97.99999999999999</ele><time>2026-04-23T10:53:21.999Z</time></trkpt><trkpt lat="45.967501170892085" lon="12.348112756766058"><ele>98.0</ele><time>2026-04-23T10:53:23.999Z</time></trkpt><trkpt lat="45.96745016889195" lon="12.348031140097952"><ele>98.0</ele><time>2026-04-23T10:53:25.999Z</time></trkpt><trkpt lat="45.96740371332828" lon="12.347963242396485"><ele>98.0</ele><time>2026-04-23T10:53:27.999Z</time></trkpt><trkpt lat="45.96734006676177" lon="12.34790639648344"><ele>98.0</ele><time>2026-04-23T10:53:30.999Z</time></trkpt><trkpt lat="45.96728520535479" lon="12.347953904515734"><ele>98.0</ele><time>2026-04-23T10:53:34.999Z</time></trkpt><trkpt lat="45.967242084584775" lon="12.348041344325061"><ele>98.0</ele><time>2026-04-23T10:53:52.999Z</time></trkpt><trkpt lat="45.967192155485655" lon="12.348139334133032"><ele>98.0</ele><time>2026-04-23T10:53:55.999Z</time></trkpt><trkpt lat="45.967146230045046" lon="12.348231779470938"><ele>98.0</ele><time>2026-04-23T10:53:58.999Z</time></trkpt><trkpt lat="45.96708567021562" lon="12.348300914834326"><ele>98.0</ele><time>2026-04-23T10:54:01.999Z</time></trkpt><trkpt lat="45.96714227717519" lon="12.34824669159477"><ele>98.0</ele><time>2026-04-23T10:54:13.999Z</time></trkpt><trkpt lat="45.96718168152876" lon="12.348168677521045"><ele>98.0</ele><time>2026-04-23T10:54:16.999Z</time></trkpt><trkpt lat="45.96721527534363" lon="12.348075955102455"><ele>98.0</ele><time>2026-04-23T10:54:59.999Z</time></trkpt><trkpt lat="45.96725429310557" lon="12.347996140078038"><ele>98.0</ele><time>2026-04-23T10:55:03.999Z</time></trkpt><trkpt lat="45.967285779693356" lon="12.347902907276856"><ele>98.0</ele><time>2026-04-23T10:55:20.999Z</time></trkpt><trkpt lat="45.96734048406341" lon="12.347838233361225"><ele>98.0</ele><time>2026-04-23T10:55:25.999Z</time></trkpt><trkpt lat="45.9673085814585" lon="12.347751663829694"><ele>97.99999999999999</ele><time>2026-04-23T10:56:19.999Z</time></trkpt><trkpt lat="45.967255687281735" lon="12.347655228381353"><ele>98.0</ele><time>2026-04-23T10:56:23.999Z</time></trkpt><trkpt lat="45.967206983855085" lon="12.347566117752018"><ele>98.0</ele><time>2026-04-23T10:56:26.999Z</time></trkpt><trkpt lat="45.967163006414076" lon="12.347470738558147"><ele>98.0</ele><time>2026-04-23T10:56:28.998Z</time></trkpt><trkpt lat="45.96711143448108" lon="12.347376063064205"><ele>97.99999999999999</ele><time>2026-04-23T10:56:30.998Z</time></trkpt><trkpt lat="45.967064951464764" lon="12.347289817417588"><ele>98.0</ele><time>2026-04-23T10:56:32.999Z</time></trkpt><trkpt lat="45.96701117023986" lon="12.347200212293432"><ele>97.80000000000001</ele><time>2026-04-23T10:56:34.999Z</time></trkpt><trkpt lat="45.966949935353654" lon="12.347105825132628"><ele>97.6</ele><time>2026-04-23T10:56:36.999Z</time></trkpt><trkpt lat="45.9668921009213" lon="12.34700654368306"><ele>97.4</ele><time>2026-04-23T10:56:38.999Z</time></trkpt><trkpt lat="45.96683050239878" lon="12.346906063054083"><ele>97.19999999999999</ele><time>2026-04-23T10:56:40.999Z</time></trkpt><trkpt lat="45.96676631119116" lon="12.346808979681455"><ele>97.0</ele><time>2026-04-23T10:56:42.999Z</time></trkpt><trkpt lat="45.96669841152397" lon="12.346715344444108"><ele>97.0</ele><time>2026-04-23T10:56:44.999Z</time></trkpt><trkpt lat="45.966625869407835" lon="12.34662506292618"><ele>97.0</ele><time>2026-04-23T10:56:46.999Z</time></trkpt><trkpt lat="45.96655460260438" lon="12.346535663344769"><ele>97.0</ele><time>2026-04-23T10:56:48.999Z</time></trkpt><trkpt lat="45.96647975568433" lon="12.34643836262885"><ele>97.0</ele><time>2026-04-23T10:56:50.999Z</time></trkpt><trkpt lat="45.966402479621706" lon="12.34634834727922"><ele>97.0</ele><time>2026-04-23T10:56:52.999Z</time></trkpt><trkpt lat="45.966325819244965" lon="12.346250230566335"><ele>97.00000000000001</ele><time>2026-04-23T10:56:54.999Z</time></trkpt><trkpt lat="45.96625416692161" lon="12.34617318157762"><ele>97.0</ele><time>2026-04-23T10:56:56.999Z</time></trkpt><trkpt lat="45.966187794290974" lon="12.34609046155162"><ele>97.0</ele><time>2026-04-23T10:56:58.999Z</time></trkpt><trkpt lat="45.96612865975673" lon="12.346016443068551"><ele>97.0</ele><time>2026-04-23T10:57:00.999Z</time></trkpt><trkpt lat="45.96607283423256" lon="12.345958011200329"><ele>97.00000000000001</ele><time>2026-04-23T10:57:02.999Z</time></trkpt><trkpt lat="45.96601537407765" lon="12.345895352308935"><ele>97.0</ele><time>2026-04-23T10:57:06.999Z</time></trkpt><trkpt lat="45.96596947392627" lon="12.345827693556192"><ele>97.00000000000001</ele><time>2026-04-23T10:58:12.999Z</time></trkpt><trkpt lat="45.96591805166473" lon="12.345775247535347"><ele>97.0</ele><time>2026-04-23T10:58:15.999Z</time></trkpt><trkpt lat="45.96585743785173" lon="12.345696464864709"><ele>97.0</ele><time>2026-04-23T10:58:18.999Z</time></trkpt><trkpt lat="45.96578320142188" lon="12.345616257797502"><ele>97.0</ele><time>2026-04-23T10:58:21.999Z</time></trkpt><trkpt lat="45.96572415351463" lon="12.34554985515059"><ele>97.00000000000001</ele><time>2026-04-23T10:58:23.999Z</time></trkpt><trkpt lat="45.96566483090179" lon="12.345482217630817"><ele>97.0</ele><time>2026-04-23T10:58:25.999Z</time></trkpt><trkpt lat="45.96559868047312" lon="12.345410107174247"><ele>96.6</ele><time>2026-04-23T10:58:27.999Z</time></trkpt><trkpt lat="45.96553014174985" lon="12.34533257921655"><ele>96.19999999999999</ele><time>2026-04-23T10:58:29.999Z</time></trkpt><trkpt lat="45.965454232825635" lon="12.34525954421215"><ele>95.8</ele><time>2026-04-23T10:58:31.999Z</time></trkpt><trkpt lat="45.965378861758076" lon="12.345189569185147"><ele>95.4</ele><time>2026-04-23T10:58:34Z</time></trkpt><trkpt lat="45.96530365113186" lon="12.345115318383407"><ele>95.0</ele><time>2026-04-23T10:58:35.999Z</time></trkpt><trkpt lat="45.96521897300339" lon="12.345048528382359"><ele>95.0</ele><time>2026-04-23T10:58:37.999Z</time></trkpt><trkpt lat="45.96513466041422" lon="12.344974773859505"><ele>95.0</ele><time>2026-04-23T10:58:39.999Z</time></trkpt><trkpt lat="45.96504228645651" lon="12.344915511439012"><ele>95.0</ele><time>2026-04-23T10:58:41.999Z</time></trkpt><trkpt lat="45.964950655991494" lon="12.34486000401907"><ele>95.0</ele><time>2026-04-23T10:58:43.999Z</time></trkpt><trkpt lat="45.96485768682331" lon="12.34480547786939"><ele>95.0</ele><time>2026-04-23T10:58:45.999Z</time></trkpt><trkpt lat="45.96476436083003" lon="12.344756655028414"><ele>94.4</ele><time>2026-04-23T10:58:47.999Z</time></trkpt><trkpt lat="45.96466823949118" lon="12.344706410558505"><ele>93.8</ele><time>2026-04-23T10:58:49.999Z</time></trkpt><trkpt lat="45.96456309921724" lon="12.344662465979075"><ele>93.19999999999999</ele><time>2026-04-23T10:58:51.999Z</time></trkpt><trkpt lat="45.96446857959823" lon="12.344629328967324"><ele>92.6</ele><time>2026-04-23T10:58:53.999Z</time></trkpt><trkpt lat="45.96436630034375" lon="12.344605966648638"><ele>92.0</ele><time>2026-04-23T10:58:55.999Z</time></trkpt><trkpt lat="45.96426922979085" lon="12.3445785975215"><ele>92.39999999999999</ele><time>2026-04-23T10:58:57.999Z</time></trkpt><trkpt lat="45.96418290747489" lon="12.344561891117324"><ele>92.8</ele><time>2026-04-23T10:58:59.999Z</time></trkpt><trkpt lat="45.964101684116244" lon="12.344543896137422"><ele>93.2</ele><time>2026-04-23T10:59:01.999Z</time></trkpt><trkpt lat="45.964010087337606" lon="12.344528064261667"><ele>93.6</ele><time>2026-04-23T10:59:03.999Z</time></trkpt><trkpt lat="45.96391818460314" lon="12.344496008323683"><ele>94.0</ele><time>2026-04-23T10:59:05.999Z</time></trkpt><trkpt lat="45.963822847064954" lon="12.344458562547768"><ele>94.0</ele><time>2026-04-23T10:59:07.999Z</time></trkpt><trkpt lat="45.96372826952905" lon="12.344412791465002"><ele>94.0</ele><time>2026-04-23T10:59:09.999Z</time></trkpt><trkpt lat="45.963632218318196" lon="12.344360748666176"><ele>94.0</ele><time>2026-04-23T10:59:11.999Z</time></trkpt><trkpt lat="45.96353559405667" lon="12.344305738882536"><ele>94.0</ele><time>2026-04-23T10:59:13.999Z</time></trkpt><trkpt lat="45.96344335841781" lon="12.344246093544653"><ele>94.0</ele><time>2026-04-23T10:59:15.999Z</time></trkpt><trkpt lat="45.96335556101167" lon="12.344183595238633"><ele>94.0</ele><time>2026-04-23T10:59:17.999Z</time></trkpt><trkpt lat="45.9632677102577" lon="12.34411938700733"><ele>94.0</ele><time>2026-04-23T10:59:19.999Z</time></trkpt><trkpt lat="45.96318888667308" lon="12.344058097494509"><ele>94.0</ele><time>2026-04-23T10:59:21.999Z</time></trkpt><trkpt lat="45.96311002896626" lon="12.343991754766344"><ele>94.0</ele><time>2026-04-23T10:59:23.999Z</time></trkpt><trkpt lat="45.96303207813665" lon="12.343931204798578"><ele>94.0</ele><time>2026-04-23T10:59:25.999Z</time></trkpt><trkpt lat="45.96295398643934" lon="12.343872267852923"><ele>94.0</ele><time>2026-04-23T10:59:27.999Z</time></trkpt><trkpt lat="45.962874740505946" lon="12.343803706404518"><ele>94.0</ele><time>2026-04-23T10:59:29.999Z</time></trkpt><trkpt lat="45.96279404897097" lon="12.343732581287972"><ele>94.0</ele><time>2026-04-23T10:59:31.999Z</time></trkpt><trkpt lat="45.96271613666408" lon="12.343660595624929"><ele>94.0</ele><time>2026-04-23T10:59:33.999Z</time></trkpt><trkpt lat="45.96264012514947" lon="12.343587684559585"><ele>94.0</ele><time>2026-04-23T10:59:35.999Z</time></trkpt><trkpt lat="45.962565142537656" lon="12.34351137721717"><ele>94.2</ele><time>2026-04-23T10:59:37.999Z</time></trkpt><trkpt lat="45.9624934420334" lon="12.34342930221535"><ele>94.4</ele><time>2026-04-23T10:59:39.999Z</time></trkpt><trkpt lat="45.9624244132257" lon="12.343342305441732"><ele>94.6</ele><time>2026-04-23T10:59:41.999Z</time></trkpt><trkpt lat="45.96235296535163" lon="12.343241049060104"><ele>94.8</ele><time>2026-04-23T10:59:43.999Z</time></trkpt><trkpt lat="45.96229232114382" lon="12.343134426656025"><ele>95.0</ele><time>2026-04-23T10:59:45.999Z</time></trkpt><trkpt lat="45.96224610999771" lon="12.343020288036131"><ele>94.66666666666667</ele><time>2026-04-23T10:59:47.999Z</time></trkpt><trkpt lat="45.962214166559114" lon="12.342902466444444"><ele>94.33333333333334</ele><time>2026-04-23T10:59:49.999Z</time></trkpt><trkpt lat="45.96218548153839" lon="12.342788643877821"><ele>94.0</ele><time>2026-04-23T10:59:51.999Z</time></trkpt><trkpt lat="45.962158038356144" lon="12.342680388366649"><ele>93.66666666666667</ele><time>2026-04-23T10:59:53.999Z</time></trkpt><trkpt lat="45.96213323997472" lon="12.34257983087753"><ele>93.33333333333333</ele><time>2026-04-23T10:59:55.999Z</time></trkpt><trkpt lat="45.962099509686965" lon="12.34246855552711"><ele>93.0</ele><time>2026-04-23T10:59:57.999Z</time></trkpt><trkpt lat="45.96207183519027" lon="12.342360293075576"><ele>93.0</ele><time>2026-04-23T10:59:59.999Z</time></trkpt><trkpt lat="45.96204456786422" lon="12.342266004591263"><ele>93.0</ele><time>2026-04-23T11:00:01.999Z</time></trkpt><trkpt lat="45.96205062581556" lon="12.342140994061031"><ele>93.0</ele><time>2026-04-23T11:00:04.999Z</time></trkpt><trkpt lat="45.96208990736674" lon="12.342062307704053"><ele>93.0</ele><time>2026-04-23T11:00:06.999Z</time></trkpt><trkpt lat="45.96215896966828" lon="12.341980593496912"><ele>93.0</ele><time>2026-04-23T11:00:08.999Z</time></trkpt><trkpt lat="45.962221975289644" lon="12.341894405847857"><ele>93.0</ele><time>2026-04-23T11:00:10.999Z</time></trkpt><trkpt lat="45.9622878905264" lon="12.341825484037694"><ele>93.16666666666667</ele><time>2026-04-23T11:00:12.999Z</time></trkpt><trkpt lat="45.96235917506831" lon="12.341794605110461"><ele>93.33333333333333</ele><time>2026-04-23T11:00:14.999Z</time></trkpt><trkpt lat="45.96242724374571" lon="12.341730576715603"><ele>93.5</ele><time>2026-04-23T11:00:16.999Z</time></trkpt><trkpt lat="45.96248978103915" lon="12.341659448734118"><ele>93.66666666666666</ele><time>2026-04-23T11:00:18.999Z</time></trkpt><trkpt lat="45.96254397952411" lon="12.341575833865653"><ele>93.83333333333333</ele><time>2026-04-23T11:00:20.999Z</time></trkpt><trkpt lat="45.96257565562162" lon="12.341466992472885"><ele>94.0</ele><time>2026-04-23T11:00:23.999Z</time></trkpt><trkpt lat="45.9626200387226" lon="12.341281252158197"><ele>94.33333333333333</ele><time>2026-04-23T11:00:25.999Z</time></trkpt><trkpt lat="45.96264709235444" lon="12.341168808833443"><ele>94.66666666666666</ele><time>2026-04-23T11:00:27.999Z</time></trkpt><trkpt lat="45.962672137141304" lon="12.34105955351133"><ele>95.0</ele><time>2026-04-23T11:00:29.999Z</time></trkpt><trkpt lat="45.96269158602481" lon="12.340953157159925"><ele>95.33333333333333</ele><time>2026-04-23T11:00:31.999Z</time></trkpt><trkpt lat="45.962710841199616" lon="12.340849293637117"><ele>95.66666666666667</ele><time>2026-04-23T11:00:33.999Z</time></trkpt><trkpt lat="45.962720030011" lon="12.34074493469644"><ele>96.0</ele><time>2026-04-23T11:00:35.999Z</time></trkpt><trkpt lat="45.96273519645519" lon="12.340636876157012"><ele>95.83333333333333</ele><time>2026-04-23T11:00:37.999Z</time></trkpt><trkpt lat="45.96275093791066" lon="12.340531944501551"><ele>95.66666666666667</ele><time>2026-04-23T11:00:40Z</time></trkpt><trkpt lat="45.96276557891928" lon="12.34042408597779"><ele>95.5</ele><time>2026-04-23T11:00:42Z</time></trkpt><trkpt lat="45.96278161771398" lon="12.340322070277725"><ele>95.33333333333334</ele><time>2026-04-23T11:00:44Z</time></trkpt><trkpt lat="45.96280475697701" lon="12.340195304701753"><ele>95.16666666666667</ele><time>2026-04-23T11:00:47Z</time></trkpt><trkpt lat="45.962818068775945" lon="12.340064961440905"><ele>95.0</ele><time>2026-04-23T11:00:49Z</time></trkpt><trkpt lat="45.96283112157309" lon="12.339967147588839"><ele>95.0</ele><time>2026-04-23T11:00:51Z</time></trkpt><trkpt lat="45.962850761595774" lon="12.339868412553598"><ele>95.0</ele><time>2026-04-23T11:00:53Z</time></trkpt><trkpt lat="45.96287751189273" lon="12.339770059251007"><ele>95.0</ele><time>2026-04-23T11:00:55Z</time></trkpt><trkpt lat="45.96291575219704" lon="12.33968041170241"><ele>95.0</ele><time>2026-04-23T11:00:57Z</time></trkpt><trkpt lat="45.96296335303201" lon="12.339592745443545"><ele>95.0</ele><time>2026-04-23T11:00:59Z</time></trkpt><trkpt lat="45.96300837001457" lon="12.339490189684206"><ele>95.0</ele><time>2026-04-23T11:01:01Z</time></trkpt><trkpt lat="45.963045332543985" lon="12.339386833461907"><ele>95.16666666666667</ele><time>2026-04-23T11:01:03Z</time></trkpt><trkpt lat="45.96308657830245" lon="12.339296849560546"><ele>95.33333333333334</ele><time>2026-04-23T11:01:05Z</time></trkpt><trkpt lat="45.96314678760309" lon="12.339203946679632"><ele>95.5</ele><time>2026-04-23T11:01:09Z</time></trkpt><trkpt lat="45.963190722470564" lon="12.339117404953969"><ele>95.66666666666667</ele><time>2026-04-23T11:01:10Z</time></trkpt><trkpt lat="45.96323535102916" lon="12.339028570532"><ele>95.83333333333333</ele><time>2026-04-23T11:01:12Z</time></trkpt><trkpt lat="45.963283086961574" lon="12.338952368167158"><ele>96.0</ele><time>2026-04-23T11:01:14Z</time></trkpt><trkpt lat="45.96332031157483" lon="12.33887303791442"><ele>95.83333333333333</ele><time>2026-04-23T11:01:16Z</time></trkpt><trkpt lat="45.96336915567204" lon="12.338761793254024"><ele>95.66666666666667</ele><time>2026-04-23T11:01:19Z</time></trkpt><trkpt lat="45.96341396213431" lon="12.338674078982772"><ele>95.5</ele><time>2026-04-23T11:01:21Z</time></trkpt><trkpt lat="45.96345487453911" lon="12.33858625999145"><ele>95.33333333333334</ele><time>2026-04-23T11:01:23Z</time></trkpt><trkpt lat="45.96350276130527" lon="12.338498034315073"><ele>95.16666666666667</ele><time>2026-04-23T11:01:25Z</time></trkpt><trkpt lat="45.96356695571851" lon="12.338386662169379"><ele>95.0</ele><time>2026-04-23T11:01:28Z</time></trkpt><trkpt lat="45.96361633980387" lon="12.338318070495559"><ele>95.0</ele><time>2026-04-23T11:01:30Z</time></trkpt><trkpt lat="45.963661660248164" lon="12.338236771880393"><ele>95.0</ele><time>2026-04-23T11:01:32Z</time></trkpt><trkpt lat="45.963724502028214" lon="12.338161287459213"><ele>95.0</ele><time>2026-04-23T11:01:34Z</time></trkpt><trkpt lat="45.96378209026443" lon="12.33807700584585"><ele>95.0</ele><time>2026-04-23T11:01:36Z</time></trkpt><trkpt lat="45.96383759540047" lon="12.338004013934182"><ele>95.0</ele><time>2026-04-23T11:01:38Z</time></trkpt><trkpt lat="45.96389456551282" lon="12.337925693615542"><ele>95.0</ele><time>2026-04-23T11:01:40Z</time></trkpt><trkpt lat="45.963944797908695" lon="12.337862544965942"><ele>95.0</ele><time>2026-04-23T11:01:42Z</time></trkpt><trkpt lat="45.9639991028829" lon="12.33778404869462"><ele>95.0</ele><time>2026-04-23T11:01:44Z</time></trkpt><trkpt lat="45.96405418189489" lon="12.337707592392722"><ele>95.0</ele><time>2026-04-23T11:01:46Z</time></trkpt><trkpt lat="45.964109422027846" lon="12.337624740360642"><ele>95.0</ele><time>2026-04-23T11:01:48Z</time></trkpt><trkpt lat="45.96416443294265" lon="12.337537802990314"><ele>95.0</ele><time>2026-04-23T11:01:50Z</time></trkpt><trkpt lat="45.96421396714751" lon="12.33744638772756"><ele>95.0</ele><time>2026-04-23T11:01:52Z</time></trkpt><trkpt lat="45.964259183888245" lon="12.337355628603275"><ele>95.33333333333334</ele><time>2026-04-23T11:01:54Z</time></trkpt><trkpt lat="45.96431137453887" lon="12.33726326142843"><ele>95.66666666666667</ele><time>2026-04-23T11:01:56Z</time></trkpt><trkpt lat="45.964362980377686" lon="12.337176602599902"><ele>96.0</ele><time>2026-04-23T11:01:58Z</time></trkpt><trkpt lat="45.96441332875216" lon="12.337086488673057"><ele>96.33333333333334</ele><time>2026-04-23T11:02:00Z</time></trkpt><trkpt lat="45.964465263715674" lon="12.336996658997956"><ele>96.66666666666667</ele><time>2026-04-23T11:02:02Z</time></trkpt><trkpt lat="45.96451936580536" lon="12.336900963836886"><ele>97.0</ele><time>2026-04-23T11:02:04Z</time></trkpt><trkpt lat="45.96457245418767" lon="12.336806395283961"><ele>97.0</ele><time>2026-04-23T11:02:06Z</time></trkpt><trkpt lat="45.96463216307922" lon="12.336717604493417"><ele>97.0</ele><time>2026-04-23T11:02:08Z</time></trkpt><trkpt lat="45.96469510695771" lon="12.336630220297163"><ele>97.0</ele><time>2026-04-23T11:02:10Z</time></trkpt><trkpt lat="45.96475733402815" lon="12.336558442326831"><ele>97.0</ele><time>2026-04-23T11:02:12Z</time></trkpt><trkpt lat="45.964838183020596" lon="12.336449917732997"><ele>97.0</ele><time>2026-04-23T11:02:14Z</time></trkpt><trkpt lat="45.964905394500065" lon="12.33636065204475"><ele>97.39999999999999</ele><time>2026-04-23T11:02:16Z</time></trkpt><trkpt lat="45.96496538479567" lon="12.336276100295748"><ele>97.8</ele><time>2026-04-23T11:02:18Z</time></trkpt><trkpt lat="45.96503229044246" lon="12.33618529177183"><ele>98.2</ele><time>2026-04-23T11:02:20Z</time></trkpt><trkpt lat="45.965097047463814" lon="12.336091949834541"><ele>98.6</ele><time>2026-04-23T11:02:22Z</time></trkpt><trkpt lat="45.96516234051935" lon="12.335987786401443"><ele>99.0</ele><time>2026-04-23T11:02:24Z</time></trkpt><trkpt lat="45.96521970691664" lon="12.335890429396226"><ele>99.0</ele><time>2026-04-23T11:02:26Z</time></trkpt><trkpt lat="45.96527847488797" lon="12.335793195397668"><ele>99.0</ele><time>2026-04-23T11:02:28Z</time></trkpt><trkpt lat="45.96533470248432" lon="12.335704366956147"><ele>99.0</ele><time>2026-04-23T11:02:30Z</time></trkpt><trkpt lat="45.96539153072325" lon="12.335604193774659"><ele>99.0</ele><time>2026-04-23T11:02:32Z</time></trkpt><trkpt lat="45.96544588300306" lon="12.335502049567053"><ele>99.0</ele><time>2026-04-23T11:02:34Z</time></trkpt><trkpt lat="45.96550086429361" lon="12.335400090577913"><ele>99.0</ele><time>2026-04-23T11:02:36Z</time></trkpt><trkpt lat="45.96555531925506" lon="12.335297645092185"><ele>99.0</ele><time>2026-04-23T11:02:38Z</time></trkpt><trkpt lat="45.96561580673507" lon="12.335202522794264"><ele>99.0</ele><time>2026-04-23T11:02:40Z</time></trkpt><trkpt lat="45.96567525299105" lon="12.33511472667085"><ele>99.0</ele><time>2026-04-23T11:02:42Z</time></trkpt><trkpt lat="45.96572056772469" lon="12.335051331197892"><ele>99.0</ele><time>2026-04-23T11:02:44Z</time></trkpt><trkpt lat="45.965770326038935" lon="12.334987502522363"><ele>99.0</ele><time>2026-04-23T11:02:47.001Z</time></trkpt><trkpt lat="45.965830595298215" lon="12.334937866828968"><ele>99.0</ele><time>2026-04-23T11:02:51.001Z</time></trkpt><trkpt lat="45.96589836730747" lon="12.334874231729048"><ele>99.0</ele><time>2026-04-23T11:02:54.001Z</time></trkpt><trkpt lat="45.96596447838612" lon="12.33477864558057"><ele>99.0</ele><time>2026-04-23T11:02:57.001Z</time></trkpt><trkpt lat="45.96602051346021" lon="12.33473602994152"><ele>99.0</ele><time>2026-04-23T11:02:59.001Z</time></trkpt><trkpt lat="45.96608865268792" lon="12.33465131947494"><ele>99.0</ele><time>2026-04-23T11:03:02.001Z</time></trkpt><trkpt lat="45.9661486134774" lon="12.334565904648882"><ele>99.0</ele><time>2026-04-23T11:03:05.001Z</time></trkpt><trkpt lat="45.96621707531725" lon="12.334488893702705"><ele>99.0</ele><time>2026-04-23T11:03:09.001Z</time></trkpt><trkpt lat="45.96625415002772" lon="12.334380187647776"><ele>99.33333333333333</ele><time>2026-04-23T11:03:12.001Z</time></trkpt><trkpt lat="45.96627183905077" lon="12.33428768902435"><ele>99.66666666666666</ele><time>2026-04-23T11:03:14.001Z</time></trkpt><trkpt lat="45.96628642429619" lon="12.334170151811506"><ele>100.0</ele><time>2026-04-23T11:03:17Z</time></trkpt><trkpt lat="45.96628173773717" lon="12.334046842885552"><ele>100.33333333333333</ele><time>2026-04-23T11:03:20Z</time></trkpt><trkpt lat="45.96624538596953" lon="12.333916854542963"><ele>100.66666666666666</ele><time>2026-04-23T11:03:23Z</time></trkpt><trkpt lat="45.966228355159615" lon="12.33381131428462"><ele>101.0</ele><time>2026-04-23T11:03:25Z</time></trkpt><trkpt lat="45.96620243299583" lon="12.33371981055644"><ele>100.99999999999999</ele><time>2026-04-23T11:03:27Z</time></trkpt><trkpt lat="45.96618254385904" lon="12.333593427514991"><ele>101.0</ele><time>2026-04-23T11:03:30Z</time></trkpt><trkpt lat="45.96617252570347" lon="12.333483713639357"><ele>101.0</ele><time>2026-04-23T11:03:32Z</time></trkpt><trkpt lat="45.9661543184119" lon="12.33337063115027"><ele>101.0</ele><time>2026-04-23T11:03:34Z</time></trkpt><trkpt lat="45.96613772851796" lon="12.33326685823044"><ele>100.99999999999999</ele><time>2026-04-23T11:03:36Z</time></trkpt><trkpt lat="45.966103644419455" lon="12.33315912086786"><ele>101.0</ele><time>2026-04-23T11:03:39Z</time></trkpt><trkpt lat="45.96607632690549" lon="12.333063094888832"><ele>100.99999999999999</ele><time>2026-04-23T11:03:41Z</time></trkpt><trkpt lat="45.96604792873754" lon="12.332969867157333"><ele>101.0</ele><time>2026-04-23T11:03:43Z</time></trkpt><trkpt lat="45.966016888095886" lon="12.332877699424756"><ele>101.0</ele><time>2026-04-23T11:03:45Z</time></trkpt><trkpt lat="45.96593635228382" lon="12.332834917395488"><ele>101.0</ele><time>2026-04-23T11:03:48Z</time></trkpt><trkpt lat="45.96584725998467" lon="12.332870761798661"><ele>100.99999999999999</ele><time>2026-04-23T11:03:50Z</time></trkpt><trkpt lat="45.96575961623586" lon="12.332878262883042"><ele>101.0</ele><time>2026-04-23T11:03:52Z</time></trkpt><trkpt lat="45.96568598963132" lon="12.332887348583723"><ele>100.83333333333333</ele><time>2026-04-23T11:03:54Z</time></trkpt><trkpt lat="45.96560845416581" lon="12.332874838977878"><ele>100.66666666666666</ele><time>2026-04-23T11:03:56Z</time></trkpt><trkpt lat="45.96553279951293" lon="12.33286479515046"><ele>100.5</ele><time>2026-04-23T11:03:58Z</time></trkpt><trkpt lat="45.965470785342" lon="12.33278111336171"><ele>100.33333333333334</ele><time>2026-04-23T11:04:00Z</time></trkpt><trkpt lat="45.96539634341942" lon="12.33269321636902"><ele>100.16666666666667</ele><time>2026-04-23T11:04:02Z</time></trkpt><trkpt lat="45.96533539866067" lon="12.332606868482449"><ele>100.0</ele><time>2026-04-23T11:04:04Z</time></trkpt><trkpt lat="45.96526618417802" lon="12.332512527599578"><ele>100.00000000000001</ele><time>2026-04-23T11:04:07Z</time></trkpt><trkpt lat="45.96527725734893" lon="12.332397881892014"><ele>100.0</ele><time>2026-04-23T11:04:09Z</time></trkpt><trkpt lat="45.96533456724297" lon="12.332301455809914"><ele>100.0</ele><time>2026-04-23T11:04:11Z</time></trkpt><trkpt lat="45.96537272865553" lon="12.332183576860391"><ele>100.0</ele><time>2026-04-23T11:04:13Z</time></trkpt><trkpt lat="45.96541208038007" lon="12.332082862717844"><ele>100.00000000000001</ele><time>2026-04-23T11:04:15Z</time></trkpt><trkpt lat="45.965450836869564" lon="12.331992029629586"><ele>100.0</ele><time>2026-04-23T11:04:17Z</time></trkpt><trkpt lat="45.96548047450466" lon="12.331884287275226"><ele>100.16666666666667</ele><time>2026-04-23T11:04:19Z</time></trkpt><trkpt lat="45.965501472657444" lon="12.33176464879778"><ele>100.33333333333334</ele><time>2026-04-23T11:04:21Z</time></trkpt><trkpt lat="45.96544654826749" lon="12.331653669261627"><ele>100.5</ele><time>2026-04-23T11:04:23Z</time></trkpt><trkpt lat="45.96538083109079" lon="12.331575368705579"><ele>100.66666666666666</ele><time>2026-04-23T11:04:25Z</time></trkpt><trkpt lat="45.965319459210434" lon="12.331491343252793"><ele>100.83333333333333</ele><time>2026-04-23T11:04:27Z</time></trkpt><trkpt lat="45.96527003865518" lon="12.331407432625218"><ele>101.0</ele><time>2026-04-23T11:04:29Z</time></trkpt><trkpt lat="45.96525704010459" lon="12.331304136680721"><ele>100.99999999999999</ele><time>2026-04-23T11:04:31Z</time></trkpt><trkpt lat="45.9653041436574" lon="12.331230022812546"><ele>101.0</ele><time>2026-04-23T11:04:33Z</time></trkpt><trkpt lat="45.96535912967128" lon="12.33115549146119"><ele>101.0</ele><time>2026-04-23T11:04:35Z</time></trkpt><trkpt lat="45.9654073992189" lon="12.331095937076245"><ele>101.0</ele><time>2026-04-23T11:04:37Z</time></trkpt><trkpt lat="45.96546157461385" lon="12.331005424035254"><ele>100.99999999999999</ele><time>2026-04-23T11:04:39Z</time></trkpt><trkpt lat="45.96551689556845" lon="12.330929018356183"><ele>101.0</ele><time>2026-04-23T11:04:41Z</time></trkpt><trkpt lat="45.96557541808896" lon="12.330837920304532"><ele>100.99999999999999</ele><time>2026-04-23T11:04:43Z</time></trkpt><trkpt lat="45.96563384636337" lon="12.33075033258522"><ele>101.0</ele><time>2026-04-23T11:04:45Z</time></trkpt><trkpt lat="45.9656820190655" lon="12.330670408530006"><ele>101.0</ele><time>2026-04-23T11:04:47Z</time></trkpt><trkpt lat="45.96571742810797" lon="12.330571342163333"><ele>101.0</ele><time>2026-04-23T11:04:49Z</time></trkpt><trkpt lat="45.96569143394733" lon="12.330458737148291"><ele>100.99999999999999</ele><time>2026-04-23T11:04:51.001Z</time></trkpt><trkpt lat="45.96563415747169" lon="12.330393396569459"><ele>101.0</ele><time>2026-04-23T11:04:53.001Z</time></trkpt><trkpt lat="45.96557533116269" lon="12.330303781443734"><ele>101.33333333333333</ele><time>2026-04-23T11:04:55.001Z</time></trkpt><trkpt lat="45.96551634254835" lon="12.330219196857122"><ele>101.66666666666666</ele><time>2026-04-23T11:04:57.001Z</time></trkpt><trkpt lat="45.96545928011096" lon="12.33014522459379"><ele>102.0</ele><time>2026-04-23T11:04:59.001Z</time></trkpt><trkpt lat="45.96540394135051" lon="12.330061220912432"><ele>102.33333333333334</ele><time>2026-04-23T11:05:01.001Z</time></trkpt><trkpt lat="45.96534848115864" lon="12.32997726030764"><ele>102.66666666666667</ele><time>2026-04-23T11:05:03.001Z</time></trkpt><trkpt lat="45.96529392987503" lon="12.329893790846564"><ele>103.0</ele><time>2026-04-23T11:05:05.001Z</time></trkpt><trkpt lat="45.96527734530946" lon="12.329783141251488"><ele>103.2</ele><time>2026-04-23T11:05:07.001Z</time></trkpt><trkpt lat="45.96530398414975" lon="12.329667660488658"><ele>103.4</ele><time>2026-04-23T11:05:09.001Z</time></trkpt><trkpt lat="45.96533507031406" lon="12.3295667280475"><ele>103.60000000000001</ele><time>2026-04-23T11:05:11.001Z</time></trkpt><trkpt lat="45.965382837200295" lon="12.329445892963564"><ele>103.80000000000001</ele><time>2026-04-23T11:05:14.001Z</time></trkpt><trkpt lat="45.965411847054725" lon="12.32934084738356"><ele>104.0</ele><time>2026-04-23T11:05:17.001Z</time></trkpt><trkpt lat="45.96541476467098" lon="12.32916436821979"><ele>104.0</ele><time>2026-04-23T11:05:19.001Z</time></trkpt><trkpt lat="45.96539170563654" lon="12.32901665721786"><ele>104.0</ele><time>2026-04-23T11:05:21.001Z</time></trkpt><trkpt lat="45.965370509434294" lon="12.32888220053005"><ele>104.0</ele><time>2026-04-23T11:05:23.001Z</time></trkpt><trkpt lat="45.965346804147075" lon="12.328749467249029"><ele>104.0</ele><time>2026-04-23T11:05:25.001Z</time></trkpt><trkpt lat="45.965326264942505" lon="12.328622240712086"><ele>104.0</ele><time>2026-04-23T11:05:27.001Z</time></trkpt><trkpt lat="45.96529490815643" lon="12.328503420808229"><ele>103.99999999999999</ele><time>2026-04-23T11:05:29.001Z</time></trkpt><trkpt lat="45.965258087512396" lon="12.328385682600446"><ele>104.0</ele><time>2026-04-23T11:05:31.001Z</time></trkpt><trkpt lat="45.9652180494305" lon="12.328269939027697"><ele>104.0</ele><time>2026-04-23T11:05:33Z</time></trkpt><trkpt lat="45.965179621775256" lon="12.32815861714779"><ele>104.0</ele><time>2026-04-23T11:05:35Z</time></trkpt><trkpt lat="45.96513993420631" lon="12.328046460144186"><ele>103.99999999999999</ele><time>2026-04-23T11:05:37Z</time></trkpt><trkpt lat="45.9651020456806" lon="12.32792741128958"><ele>104.0</ele><time>2026-04-23T11:05:39Z</time></trkpt><trkpt lat="45.9650733671311" lon="12.327842909282523"><ele>104.0</ele><time>2026-04-23T11:05:41Z</time></trkpt><trkpt lat="45.96504413707471" lon="12.327744737215832"><ele>104.0</ele><time>2026-04-23T11:05:43Z</time></trkpt><trkpt lat="45.965020021927735" lon="12.327613819176442"><ele>104.0</ele><time>2026-04-23T11:05:45Z</time></trkpt><trkpt lat="45.96498558136546" lon="12.327476884716623"><ele>104.0</ele><time>2026-04-23T11:05:47Z</time></trkpt><trkpt lat="45.96494247823705" lon="12.32735844908177"><ele>104.0</ele><time>2026-04-23T11:05:49Z</time></trkpt><trkpt lat="45.96489968668853" lon="12.32724841265115"><ele>103.83333333333333</ele><time>2026-04-23T11:05:51Z</time></trkpt><trkpt lat="45.964853913599" lon="12.327140900570807"><ele>103.66666666666666</ele><time>2026-04-23T11:05:53Z</time></trkpt><trkpt lat="45.96480489926197" lon="12.327027615755656"><ele>103.5</ele><time>2026-04-23T11:05:55Z</time></trkpt><trkpt lat="45.964751475612616" lon="12.326914753710758"><ele>103.33333333333334</ele><time>2026-04-23T11:05:57Z</time></trkpt><trkpt lat="45.96470127891096" lon="12.326813375645305"><ele>103.16666666666667</ele><time>2026-04-23T11:05:59Z</time></trkpt><trkpt lat="45.96465130928078" lon="12.326721279722337"><ele>103.0</ele><time>2026-04-23T11:06:01Z</time></trkpt><trkpt lat="45.964657253161384" lon="12.326617770976911"><ele>103.0</ele><time>2026-04-23T11:06:03Z</time></trkpt><trkpt lat="45.964681459365494" lon="12.326488886918108"><ele>103.0</ele><time>2026-04-23T11:06:05Z</time></trkpt><trkpt lat="45.96475647743451" lon="12.326394608885392"><ele>103.0</ele><time>2026-04-23T11:06:07Z</time></trkpt><trkpt lat="45.96478723462513" lon="12.32627955470481"><ele>103.0</ele><time>2026-04-23T11:06:09Z</time></trkpt><trkpt lat="45.96483324412275" lon="12.326165787307156"><ele>103.0</ele><time>2026-04-23T11:06:11Z</time></trkpt><trkpt lat="45.964874445134306" lon="12.326057967375522"><ele>103.0</ele><time>2026-04-23T11:06:13Z</time></trkpt><trkpt lat="45.964920211870414" lon="12.325942079766445"><ele>103.0</ele><time>2026-04-23T11:06:15Z</time></trkpt><trkpt lat="45.96496745012806" lon="12.325832144087935"><ele>103.0</ele><time>2026-04-23T11:06:17Z</time></trkpt><trkpt lat="45.96500914264633" lon="12.325726980650373"><ele>103.0</ele><time>2026-04-23T11:06:19Z</time></trkpt><trkpt lat="45.96503947374115" lon="12.325645030133947"><ele>103.0</ele><time>2026-04-23T11:06:21Z</time></trkpt><trkpt lat="45.96511783969075" lon="12.325467518803272"><ele>103.4</ele><time>2026-04-23T11:06:24Z</time></trkpt><trkpt lat="45.96516859871333" lon="12.325349657003956"><ele>103.80000000000001</ele><time>2026-04-23T11:06:26Z</time></trkpt><trkpt lat="45.965205502626205" lon="12.325225449158244"><ele>104.2</ele><time>2026-04-23T11:06:28Z</time></trkpt><trkpt lat="45.96524014229859" lon="12.325094395326678"><ele>104.6</ele><time>2026-04-23T11:06:30Z</time></trkpt><trkpt lat="45.96526932836973" lon="12.324960424375366"><ele>105.0</ele><time>2026-04-23T11:06:32Z</time></trkpt><trkpt lat="45.965289249651626" lon="12.324822686892233"><ele>104.8</ele><time>2026-04-23T11:06:34Z</time></trkpt><trkpt lat="45.9653143244904" lon="12.324689584055141"><ele>104.6</ele><time>2026-04-23T11:06:36Z</time></trkpt><trkpt lat="45.965350339384955" lon="12.324568086913674"><ele>104.4</ele><time>2026-04-23T11:06:38Z</time></trkpt><trkpt lat="45.9653757881394" lon="12.32443000165354"><ele>104.2</ele><time>2026-04-23T11:06:40Z</time></trkpt><trkpt lat="45.96539417835189" lon="12.32429893427957"><ele>104.0</ele><time>2026-04-23T11:06:42Z</time></trkpt><trkpt lat="45.96541784069443" lon="12.324163096195718"><ele>104.0</ele><time>2026-04-23T11:06:44Z</time></trkpt><trkpt lat="45.96547108601398" lon="12.32405455705641"><ele>104.0</ele><time>2026-04-23T11:06:46Z</time></trkpt><trkpt lat="45.96548656468873" lon="12.323920404294524"><ele>104.0</ele><time>2026-04-23T11:06:48Z</time></trkpt><trkpt lat="45.96552527597125" lon="12.32379647436602"><ele>104.0</ele><time>2026-04-23T11:06:50Z</time></trkpt><trkpt lat="45.96556169086886" lon="12.32367255984587"><ele>104.0</ele><time>2026-04-23T11:06:52Z</time></trkpt><trkpt lat="45.96559521164668" lon="12.323537251624991"><ele>104.2</ele><time>2026-04-23T11:06:54Z</time></trkpt><trkpt lat="45.965583252142466" lon="12.323427652053121"><ele>104.4</ele><time>2026-04-23T11:06:56Z</time></trkpt><trkpt lat="45.96557079724393" lon="12.323210418239798"><ele>104.6</ele><time>2026-04-23T11:06:59.001Z</time></trkpt><trkpt lat="45.96564848665272" lon="12.323171036038742"><ele>104.8</ele><time>2026-04-23T11:07:02.001Z</time></trkpt><trkpt lat="45.965729662021886" lon="12.323203506094552"><ele>105.0</ele><time>2026-04-23T11:07:05.001Z</time></trkpt><trkpt lat="45.96581121575625" lon="12.323233258575003"><ele>105.33333333333333</ele><time>2026-04-23T11:07:07.001Z</time></trkpt><trkpt lat="45.96588383812946" lon="12.323261336260805"><ele>105.66666666666666</ele><time>2026-04-23T11:07:09.001Z</time></trkpt><trkpt lat="45.965967889895566" lon="12.323282033927867"><ele>106.0</ele><time>2026-04-23T11:07:11.001Z</time></trkpt><trkpt lat="45.96603598727447" lon="12.32331884896395"><ele>106.33333333333333</ele><time>2026-04-23T11:07:13.001Z</time></trkpt><trkpt lat="45.96611825383001" lon="12.323373843063544"><ele>106.66666666666666</ele><time>2026-04-23T11:07:16.001Z</time></trkpt><trkpt lat="45.96620462482055" lon="12.323388659331865"><ele>107.0</ele><time>2026-04-23T11:07:18.001Z</time></trkpt><trkpt lat="45.96627243285004" lon="12.323286536575267"><ele>106.99999999999999</ele><time>2026-04-23T11:07:20.001Z</time></trkpt><trkpt lat="45.966326244230146" lon="12.323225643100237"><ele>107.0</ele><time>2026-04-23T11:07:22.001Z</time></trkpt><trkpt lat="45.96642103396255" lon="12.323180478645027"><ele>107.0</ele><time>2026-04-23T11:07:25.001Z</time></trkpt><trkpt lat="45.966496960365546" lon="12.323128305266993"><ele>107.0</ele><time>2026-04-23T11:07:27.001Z</time></trkpt><trkpt lat="45.966566464024076" lon="12.323068048731214"><ele>106.99999999999999</ele><time>2026-04-23T11:07:29.001Z</time></trkpt><trkpt lat="45.96663836236374" lon="12.323020178374623"><ele>107.0</ele><time>2026-04-23T11:07:31.001Z</time></trkpt><trkpt lat="45.96670958453622" lon="12.322977769439529"><ele>107.16666666666666</ele><time>2026-04-23T11:07:33Z</time></trkpt><trkpt lat="45.96678067190785" lon="12.322935457667326"><ele>107.33333333333333</ele><time>2026-04-23T11:07:35Z</time></trkpt><trkpt lat="45.96685326948339" lon="12.322883870925612"><ele>107.5</ele><time>2026-04-23T11:07:37Z</time></trkpt><trkpt lat="45.96692566404449" lon="12.322833522426448"><ele>107.66666666666666</ele><time>2026-04-23T11:07:39Z</time></trkpt><trkpt lat="45.96699368579286" lon="12.32279121179865"><ele>107.83333333333333</ele><time>2026-04-23T11:07:41Z</time></trkpt><trkpt lat="45.96706833959342" lon="12.322741561511592"><ele>108.0</ele><time>2026-04-23T11:07:43Z</time></trkpt><trkpt lat="45.967136774903274" lon="12.322700118907193"><ele>108.0</ele><time>2026-04-23T11:07:45Z</time></trkpt><trkpt lat="45.967214006500235" lon="12.322649724692676"><ele>108.00000000000001</ele><time>2026-04-23T11:07:48Z</time></trkpt><trkpt lat="45.96735596023725" lon="12.322551702441904"><ele>108.00000000000001</ele><time>2026-04-23T11:07:51Z</time></trkpt><trkpt lat="45.96742007816891" lon="12.322502233835465"><ele>108.0</ele><time>2026-04-23T11:07:53Z</time></trkpt><trkpt lat="45.96748439950216" lon="12.322434359372682"><ele>108.0</ele><time>2026-04-23T11:07:56Z</time></trkpt><trkpt lat="45.96754033375796" lon="12.32238136776185"><ele>108.0</ele><time>2026-04-23T11:07:59Z</time></trkpt><trkpt lat="45.96758468519312" lon="12.322296410545736"><ele>108.0</ele><time>2026-04-23T11:10:48.999Z</time></trkpt><trkpt lat="45.967647604744535" lon="12.322222389608616"><ele>108.0</ele><time>2026-04-23T11:10:51.999Z</time></trkpt><trkpt lat="45.96771425079546" lon="12.322138883070595"><ele>108.0</ele><time>2026-04-23T11:10:54.999Z</time></trkpt><trkpt lat="45.96776066742784" lon="12.322065504587586"><ele>108.0</ele><time>2026-04-23T11:10:56.999Z</time></trkpt><trkpt lat="45.967826331663844" lon="12.321976360560063"><ele>108.0</ele><time>2026-04-23T11:10:59.999Z</time></trkpt><trkpt lat="45.96789850082273" lon="12.321877975238817"><ele>108.0</ele><time>2026-04-23T11:11:02.999Z</time></trkpt><trkpt lat="45.96794860907259" lon="12.321804897012466"><ele>108.0</ele><time>2026-04-23T11:11:04.999Z</time></trkpt><trkpt lat="45.96799714574686" lon="12.321735637490898"><ele>108.0</ele><time>2026-04-23T11:11:06.999Z</time></trkpt><trkpt lat="45.96804345726013" lon="12.321668376192468"><ele>108.0</ele><time>2026-04-23T11:11:09.001Z</time></trkpt><trkpt lat="45.968091071494584" lon="12.321598796969438"><ele>108.0</ele><time>2026-04-23T11:11:11.001Z</time></trkpt><trkpt lat="45.96814011718479" lon="12.321530141895696"><ele>108.0</ele><time>2026-04-23T11:11:13.001Z</time></trkpt><trkpt lat="45.96818596074006" lon="12.3214621442159"><ele>108.0</ele><time>2026-04-23T11:11:15.001Z</time></trkpt><trkpt lat="45.968232936539025" lon="12.321398032204286"><ele>108.0</ele><time>2026-04-23T11:11:17.001Z</time></trkpt><trkpt lat="45.96829599639588" lon="12.321311639510526"><ele>108.0</ele><time>2026-04-23T11:11:20.001Z</time></trkpt><trkpt lat="45.968356153131424" lon="12.321231360938702"><ele>108.0</ele><time>2026-04-23T11:11:23.001Z</time></trkpt><trkpt lat="45.968420892029414" lon="12.321137568237843"><ele>108.0</ele><time>2026-04-23T11:11:26.001Z</time></trkpt><trkpt lat="45.96846797205268" lon="12.32106977634363"><ele>108.0</ele><time>2026-04-23T11:11:28.001Z</time></trkpt><trkpt lat="45.96853279154753" lon="12.320981088356506"><ele>108.0</ele><time>2026-04-23T11:11:31.001Z</time></trkpt><trkpt lat="45.968575931768704" lon="12.32091448150539"><ele>108.33333333333333</ele><time>2026-04-23T11:11:33.001Z</time></trkpt><trkpt lat="45.96863111672327" lon="12.320834833356377"><ele>108.66666666666666</ele><time>2026-04-23T11:11:36Z</time></trkpt><trkpt lat="45.96867708541719" lon="12.320770420308186"><ele>109.0</ele><time>2026-04-23T11:11:38Z</time></trkpt><trkpt lat="45.9687295720428" lon="12.32070049143727"><ele>109.33333333333333</ele><time>2026-04-23T11:11:40Z</time></trkpt><trkpt lat="45.96878257967724" lon="12.320624205843378"><ele>109.66666666666666</ele><time>2026-04-23T11:11:42Z</time></trkpt><trkpt lat="45.96883984118007" lon="12.320540250216702"><ele>110.0</ele><time>2026-04-23T11:11:44Z</time></trkpt><trkpt lat="45.96889969729172" lon="12.320453834085779"><ele>110.0</ele><time>2026-04-23T11:11:46Z</time></trkpt><trkpt lat="45.96896205059245" lon="12.320366054262113"><ele>110.0</ele><time>2026-04-23T11:11:48Z</time></trkpt><trkpt lat="45.96902486892926" lon="12.320270003433611"><ele>110.0</ele><time>2026-04-23T11:11:50Z</time></trkpt><trkpt lat="45.9690896684984" lon="12.320180369933095"><ele>110.0</ele><time>2026-04-23T11:11:52Z</time></trkpt><trkpt lat="45.96915454746452" lon="12.320088134964218"><ele>110.0</ele><time>2026-04-23T11:11:54Z</time></trkpt><trkpt lat="45.969219490630195" lon="12.319994629507356"><ele>110.0</ele><time>2026-04-23T11:11:56Z</time></trkpt><trkpt lat="45.96929009875323" lon="12.319902971177351"><ele>110.0</ele><time>2026-04-23T11:11:58Z</time></trkpt><trkpt lat="45.96935372828851" lon="12.319806052822333"><ele>110.0</ele><time>2026-04-23T11:12:00Z</time></trkpt><trkpt lat="45.969421293106144" lon="12.3197097273833"><ele>110.0</ele><time>2026-04-23T11:12:02Z</time></trkpt><trkpt lat="45.96948653061258" lon="12.319610369459745"><ele>110.0</ele><time>2026-04-23T11:12:04Z</time></trkpt><trkpt lat="45.96955380933303" lon="12.319511316040817"><ele>109.8</ele><time>2026-04-23T11:12:06Z</time></trkpt><trkpt lat="45.96962308178689" lon="12.319414261377812"><ele>109.6</ele><time>2026-04-23T11:12:08Z</time></trkpt><trkpt lat="45.96969069124776" lon="12.319321480669865"><ele>109.4</ele><time>2026-04-23T11:12:10Z</time></trkpt><trkpt lat="45.969761111972964" lon="12.319217873207265"><ele>109.2</ele><time>2026-04-23T11:12:12Z</time></trkpt><trkpt lat="45.96983470253688" lon="12.319115274952567"><ele>109.0</ele><time>2026-04-23T11:12:14Z</time></trkpt><trkpt lat="45.969904469545355" lon="12.319009132322403"><ele>109.0</ele><time>2026-04-23T11:12:16Z</time></trkpt><trkpt lat="45.96996186371292" lon="12.318906227191393"><ele>109.0</ele><time>2026-04-23T11:12:18Z</time></trkpt><trkpt lat="45.9700352519469" lon="12.318816604336025"><ele>109.0</ele><time>2026-04-23T11:12:20Z</time></trkpt><trkpt lat="45.97010328924555" lon="12.318721114524248"><ele>109.0</ele><time>2026-04-23T11:12:22Z</time></trkpt><trkpt lat="45.97017123853581" lon="12.318606912717545"><ele>109.0</ele><time>2026-04-23T11:12:24Z</time></trkpt><trkpt lat="45.97023415500353" lon="12.318503291038192"><ele>109.4</ele><time>2026-04-23T11:12:26Z</time></trkpt><trkpt lat="45.970294901134125" lon="12.318398035501822"><ele>109.80000000000001</ele><time>2026-04-23T11:12:28Z</time></trkpt><trkpt lat="45.9703658425786" lon="12.318319129127286"><ele>110.19999999999999</ele><time>2026-04-23T11:12:30Z</time></trkpt><trkpt lat="45.97045191977852" lon="12.318266495300726"><ele>110.6</ele><time>2026-04-23T11:12:32Z</time></trkpt><trkpt lat="45.97053998371996" lon="12.318222497403248"><ele>111.0</ele><time>2026-04-23T11:12:34Z</time></trkpt><trkpt lat="45.97061248513396" lon="12.318177370126376"><ele>111.0</ele><time>2026-04-23T11:12:36Z</time></trkpt><trkpt lat="45.97070453957693" lon="12.318103809366153"><ele>111.0</ele><time>2026-04-23T11:12:38Z</time></trkpt><trkpt lat="45.97077803675902" lon="12.3180274429292"><ele>111.0</ele><time>2026-04-23T11:12:40Z</time></trkpt><trkpt lat="45.97085406053009" lon="12.317943183724367"><ele>111.0</ele><time>2026-04-23T11:12:42Z</time></trkpt><trkpt lat="45.97093036354796" lon="12.317863524330793"><ele>111.0</ele><time>2026-04-23T11:12:44Z</time></trkpt><trkpt lat="45.971008530646294" lon="12.31778100850183"><ele>111.19999999999999</ele><time>2026-04-23T11:12:46Z</time></trkpt><trkpt lat="45.971085815086944" lon="12.317702188876039"><ele>111.39999999999999</ele><time>2026-04-23T11:12:48Z</time></trkpt><trkpt lat="45.971161912665735" lon="12.31762330229468"><ele>111.6</ele><time>2026-04-23T11:12:50Z</time></trkpt><trkpt lat="45.97123257259135" lon="12.317542612438464"><ele>111.8</ele><time>2026-04-23T11:12:52Z</time></trkpt><trkpt lat="45.97130468468213" lon="12.317472611187606"><ele>112.0</ele><time>2026-04-23T11:12:54Z</time></trkpt><trkpt lat="45.97137227142781" lon="12.317398779758873"><ele>112.00000000000001</ele><time>2026-04-23T11:12:56Z</time></trkpt><trkpt lat="45.971423389359714" lon="12.317330665894909"><ele>112.0</ele><time>2026-04-23T11:12:58Z</time></trkpt><trkpt lat="45.971474448723626" lon="12.317255910908706"><ele>112.0</ele><time>2026-04-23T11:13:00Z</time></trkpt><trkpt lat="45.971523527759416" lon="12.317160761860961"><ele>112.0</ele><time>2026-04-23T11:13:02Z</time></trkpt><trkpt lat="45.97156102845361" lon="12.317051042013409"><ele>112.00000000000001</ele><time>2026-04-23T11:13:04Z</time></trkpt><trkpt lat="45.97159492539484" lon="12.316954985081855"><ele>112.0</ele><time>2026-04-23T11:13:06Z</time></trkpt><trkpt lat="45.971642234199884" lon="12.316861503033804"><ele>111.71428571428571</ele><time>2026-04-23T11:13:07.999Z</time></trkpt><trkpt lat="45.97167988441624" lon="12.316778643146641"><ele>111.42857142857143</ele><time>2026-04-23T11:13:09.999Z</time></trkpt><trkpt lat="45.97173479599097" lon="12.316696348241626"><ele>111.14285714285714</ele><time>2026-04-23T11:13:11.999Z</time></trkpt><trkpt lat="45.97179620806541" lon="12.316651508864842"><ele>110.85714285714286</ele><time>2026-04-23T11:13:13.999Z</time></trkpt><trkpt lat="45.97186863729461" lon="12.31661516211044"><ele>110.57142857142857</ele><time>2026-04-23T11:13:16.001Z</time></trkpt><trkpt lat="45.97194468204789" lon="12.316591346719973"><ele>110.28571428571428</ele><time>2026-04-23T11:13:18.001Z</time></trkpt><trkpt lat="45.97201798404783" lon="12.316559900920415"><ele>110.0</ele><time>2026-04-23T11:13:20.001Z</time></trkpt><trkpt lat="45.972078582276964" lon="12.316506679084847"><ele>109.99999999999999</ele><time>2026-04-23T11:13:22.001Z</time></trkpt><trkpt lat="45.97213883750559" lon="12.316426809585597"><ele>110.0</ele><time>2026-04-23T11:13:24.001Z</time></trkpt><trkpt lat="45.97219006419839" lon="12.316338624721446"><ele>110.0</ele><time>2026-04-23T11:13:26.001Z</time></trkpt><trkpt lat="45.97223930225725" lon="12.316248393693394"><ele>110.0</ele><time>2026-04-23T11:13:28.001Z</time></trkpt><trkpt lat="45.972296702935374" lon="12.316165284579789"><ele>109.99999999999999</ele><time>2026-04-23T11:13:30.001Z</time></trkpt><trkpt lat="45.972358635721235" lon="12.316098424769732"><ele>110.0</ele><time>2026-04-23T11:13:32.001Z</time></trkpt><trkpt lat="45.97242393228919" lon="12.316026267559035"><ele>110.6</ele><time>2026-04-23T11:13:34.001Z</time></trkpt><trkpt lat="45.972490485784256" lon="12.315959585199838"><ele>111.2</ele><time>2026-04-23T11:13:36.001Z</time></trkpt><trkpt lat="45.97256976585656" lon="12.315877056973486"><ele>111.80000000000001</ele><time>2026-04-23T11:13:38.001Z</time></trkpt><trkpt lat="45.97265263544066" lon="12.31579940621085"><ele>112.4</ele><time>2026-04-23T11:13:40.001Z</time></trkpt><trkpt lat="45.972737691091794" lon="12.315732733339333"><ele>113.0</ele><time>2026-04-23T11:13:42.001Z</time></trkpt><trkpt lat="45.97281436089867" lon="12.315656719042273"><ele>113.0</ele><time>2026-04-23T11:13:44.001Z</time></trkpt><trkpt lat="45.97288277292716" lon="12.315586836383952"><ele>113.00000000000001</ele><time>2026-04-23T11:13:47.001Z</time></trkpt><trkpt lat="45.972982524323946" lon="12.315468732121488"><ele>113.00000000000001</ele><time>2026-04-23T11:13:49.001Z</time></trkpt><trkpt lat="45.9730422307091" lon="12.315392408068078"><ele>113.0</ele><time>2026-04-23T11:13:51.001Z</time></trkpt><trkpt lat="45.97309061292055" lon="12.315316984193343"><ele>113.0</ele><time>2026-04-23T11:13:53Z</time></trkpt><trkpt lat="45.97315193357122" lon="12.315226073886713"><ele>113.14285714285714</ele><time>2026-04-23T11:13:56Z</time></trkpt><trkpt lat="45.97320697203603" lon="12.315168720386561"><ele>113.28571428571428</ele><time>2026-04-23T11:13:58Z</time></trkpt><trkpt lat="45.97327469536982" lon="12.315161704075043"><ele>113.42857142857142</ele><time>2026-04-23T11:14:00Z</time></trkpt><trkpt lat="45.97334492902594" lon="12.31519868660361"><ele>113.57142857142857</ele><time>2026-04-23T11:14:02Z</time></trkpt><trkpt lat="45.973409661035475" lon="12.315246115097011"><ele>113.7142857142857</ele><time>2026-04-23T11:14:04Z</time></trkpt><trkpt lat="45.97346812965503" lon="12.315281222269384"><ele>113.85714285714285</ele><time>2026-04-23T11:14:06Z</time></trkpt><trkpt lat="45.973532700120465" lon="12.315291156297953"><ele>114.0</ele><time>2026-04-23T11:14:08Z</time></trkpt><trkpt lat="45.97360736658446" lon="12.315281672076296"><ele>114.0</ele><time>2026-04-23T11:14:10Z</time></trkpt><trkpt lat="45.97367756359024" lon="12.315259596645495"><ele>113.99999999999999</ele><time>2026-04-23T11:14:12Z</time></trkpt><trkpt lat="45.97374559932713" lon="12.315224084111875"><ele>114.0</ele><time>2026-04-23T11:14:14Z</time></trkpt><trkpt lat="45.97381652916256" lon="12.315181947896157"><ele>114.0</ele><time>2026-04-23T11:14:16Z</time></trkpt><trkpt lat="45.973884315170686" lon="12.31513871374198"><ele>113.99999999999999</ele><time>2026-04-23T11:14:18Z</time></trkpt><trkpt lat="45.97394937205342" lon="12.315081314110188"><ele>114.0</ele><time>2026-04-23T11:14:20Z</time></trkpt><trkpt lat="45.97401200202474" lon="12.315062245542414"><ele>114.0</ele><time>2026-04-23T11:14:22Z</time></trkpt><trkpt lat="45.97407514080195" lon="12.315104447024398"><ele>114.0</ele><time>2026-04-23T11:14:24Z</time></trkpt><trkpt lat="45.97411092945769" lon="12.315181654671989"><ele>114.0</ele><time>2026-04-23T11:14:26Z</time></trkpt><trkpt lat="45.974163513252215" lon="12.315297836357885"><ele>114.0</ele><time>2026-04-23T11:14:29Z</time></trkpt><trkpt lat="45.97421295342139" lon="12.31537922222412"><ele>114.0</ele><time>2026-04-23T11:14:31Z</time></trkpt><trkpt lat="45.97426925079755" lon="12.315461485262178"><ele>114.0</ele><time>2026-04-23T11:14:33Z</time></trkpt><trkpt lat="45.97432578774133" lon="12.315542380286608"><ele>114.0</ele><time>2026-04-23T11:14:35Z</time></trkpt><trkpt lat="45.974395849030465" lon="12.315568597827719"><ele>113.66666666666667</ele><time>2026-04-23T11:14:37Z</time></trkpt><trkpt lat="45.974464453350315" lon="12.315515700810803"><ele>113.33333333333334</ele><time>2026-04-23T11:14:39Z</time></trkpt><trkpt lat="45.97452557097437" lon="12.315424290763985"><ele>113.0</ele><time>2026-04-23T11:14:41Z</time></trkpt><trkpt lat="45.97458580341432" lon="12.315340862551448"><ele>112.66666666666667</ele><time>2026-04-23T11:14:43Z</time></trkpt><trkpt lat="45.974646695343544" lon="12.315262894381767"><ele>112.33333333333334</ele><time>2026-04-23T11:14:45Z</time></trkpt><trkpt lat="45.974706057306236" lon="12.315186958793245"><ele>112.0</ele><time>2026-04-23T11:14:47Z</time></trkpt><trkpt lat="45.97475637838323" lon="12.315122290307835"><ele>112.00000000000001</ele><time>2026-04-23T11:14:49Z</time></trkpt><trkpt lat="45.974801307007404" lon="12.315046207402178"><ele>112.0</ele><time>2026-04-23T11:14:51Z</time></trkpt><trkpt lat="45.97482523165185" lon="12.314948878597086"><ele>112.0</ele><time>2026-04-23T11:14:53Z</time></trkpt><trkpt lat="45.974816682056186" lon="12.314848444940202"><ele>112.0</ele><time>2026-04-23T11:14:55Z</time></trkpt><trkpt lat="45.97478783686083" lon="12.314722931631508"><ele>112.00000000000001</ele><time>2026-04-23T11:14:58Z</time></trkpt><trkpt lat="45.974758640758424" lon="12.314629637644623"><ele>112.0</ele><time>2026-04-23T11:15:00Z</time></trkpt><trkpt lat="45.97472392802852" lon="12.31452906842601"><ele>112.50000000000001</ele><time>2026-04-23T11:15:02Z</time></trkpt><trkpt lat="45.97468428850639" lon="12.314421444070707"><ele>113.0</ele><time>2026-04-23T11:15:04Z</time></trkpt><trkpt lat="45.97464735805417" lon="12.314317235168067"><ele>113.5</ele><time>2026-04-23T11:15:06Z</time></trkpt><trkpt lat="45.97461478039408" lon="12.314224962061278"><ele>114.0</ele><time>2026-04-23T11:15:08Z</time></trkpt><trkpt lat="45.97457716137653" lon="12.314132683538004"><ele>114.50000000000001</ele><time>2026-04-23T11:15:09.999Z</time></trkpt><trkpt lat="45.97454331619736" lon="12.314042211779972"><ele>115.0</ele><time>2026-04-23T11:15:11.999Z</time></trkpt><trkpt lat="45.974509454262595" lon="12.313941786072736"><ele>115.33333333333334</ele><time>2026-04-23T11:15:13.999Z</time></trkpt><trkpt lat="45.97447582154303" lon="12.313845280911679"><ele>115.66666666666667</ele><time>2026-04-23T11:15:15.999Z</time></trkpt><trkpt lat="45.97444815022293" lon="12.313738877036581"><ele>116.0</ele><time>2026-04-23T11:15:17.999Z</time></trkpt><trkpt lat="45.97443068262122" lon="12.313645082292902"><ele>116.33333333333334</ele><time>2026-04-23T11:15:19.999Z</time></trkpt><trkpt lat="45.974435503756766" lon="12.313523248211986"><ele>116.66666666666667</ele><time>2026-04-23T11:15:23.001Z</time></trkpt><trkpt lat="45.9744506899086" lon="12.313430554774136"><ele>117.0</ele><time>2026-04-23T11:15:25.001Z</time></trkpt><trkpt lat="45.97451097682979" lon="12.313332316847802"><ele>117.0</ele><time>2026-04-23T11:15:28.001Z</time></trkpt><trkpt lat="45.974554809471535" lon="12.313259847341017"><ele>117.00000000000001</ele><time>2026-04-23T11:15:30.001Z</time></trkpt><trkpt lat="45.974580639508474" lon="12.31313551857157"><ele>117.0</ele><time>2026-04-23T11:15:33.001Z</time></trkpt><trkpt lat="45.97457712796989" lon="12.313039602019948"><ele>117.0</ele><time>2026-04-23T11:15:35.001Z</time></trkpt><trkpt lat="45.974551286289824" lon="12.312938676016554"><ele>117.00000000000001</ele><time>2026-04-23T11:15:37.001Z</time></trkpt><trkpt lat="45.97454902791037" lon="12.312833036578374"><ele>117.0</ele><time>2026-04-23T11:15:39.001Z</time></trkpt><trkpt lat="45.974582681917866" lon="12.312736576008461"><ele>117.0</ele><time>2026-04-23T11:15:41.001Z</time></trkpt><trkpt lat="45.97462548537134" lon="12.312648235694905"><ele>117.14285714285715</ele><time>2026-04-23T11:15:43.001Z</time></trkpt><trkpt lat="45.974669660590166" lon="12.312571437634961"><ele>117.2857142857143</ele><time>2026-04-23T11:15:45.001Z</time></trkpt><trkpt lat="45.97472186799804" lon="12.312501728602005"><ele>117.42857142857143</ele><time>2026-04-23T11:15:47.001Z</time></trkpt><trkpt lat="45.974781774835904" lon="12.312439263688487"><ele>117.57142857142858</ele><time>2026-04-23T11:15:49.001Z</time></trkpt><trkpt lat="45.97484440902718" lon="12.312382511887455"><ele>117.71428571428572</ele><time>2026-04-23T11:15:51.001Z</time></trkpt><trkpt lat="45.974910215245856" lon="12.312332301325176"><ele>117.85714285714286</ele><time>2026-04-23T11:15:53.001Z</time></trkpt><trkpt lat="45.974977243012574" lon="12.312309276567273"><ele>118.0</ele><time>2026-04-23T11:15:55.001Z</time></trkpt><trkpt lat="45.97504909790185" lon="12.312301034799857"><ele>118.0</ele><time>2026-04-23T11:15:57.001Z</time></trkpt><trkpt lat="45.97511702932419" lon="12.312307210448258"><ele>118.0</ele><time>2026-04-23T11:15:59.001Z</time></trkpt><trkpt lat="45.97518148491393" lon="12.312306188899278"><ele>118.0</ele><time>2026-04-23T11:16:01.001Z</time></trkpt><trkpt lat="45.97525145663986" lon="12.31230180922097"><ele>118.0</ele><time>2026-04-23T11:16:03.001Z</time></trkpt><trkpt lat="45.97532820872473" lon="12.312277784316773"><ele>118.0</ele><time>2026-04-23T11:16:05Z</time></trkpt><trkpt lat="45.97539321127995" lon="12.31223506642182"><ele>118.0</ele><time>2026-04-23T11:16:07Z</time></trkpt><trkpt lat="45.975454198926805" lon="12.312174646641772"><ele>118.0</ele><time>2026-04-23T11:16:09Z</time></trkpt><trkpt lat="45.9755062079365" lon="12.312100451764051"><ele>118.00000000000001</ele><time>2026-04-23T11:16:11Z</time></trkpt><trkpt lat="45.97555974658171" lon="12.312019132850198"><ele>118.0</ele><time>2026-04-23T11:16:13Z</time></trkpt><trkpt lat="45.97561116802508" lon="12.311937736489309"><ele>118.0</ele><time>2026-04-23T11:16:15Z</time></trkpt><trkpt lat="45.975660100632794" lon="12.311855731043973"><ele>118.0</ele><time>2026-04-23T11:16:17Z</time></trkpt><trkpt lat="45.97570544089845" lon="12.311768479260888"><ele>118.00000000000001</ele><time>2026-04-23T11:16:19Z</time></trkpt><trkpt lat="45.97573568771938" lon="12.311667595034981"><ele>118.0</ele><time>2026-04-23T11:16:21Z</time></trkpt><trkpt lat="45.97575179749266" lon="12.311553877331617"><ele>118.0</ele><time>2026-04-23T11:16:23Z</time></trkpt><trkpt lat="45.9757572366089" lon="12.311445956673941"><ele>118.0</ele><time>2026-04-23T11:16:25Z</time></trkpt><trkpt lat="45.97576742227906" lon="12.311339556005162"><ele>118.0</ele><time>2026-04-23T11:16:27Z</time></trkpt><trkpt lat="45.97579008282765" lon="12.311230629338954"><ele>118.0</ele><time>2026-04-23T11:16:29Z</time></trkpt><trkpt lat="45.97582109345252" lon="12.311128316708754"><ele>118.0</ele><time>2026-04-23T11:16:31Z</time></trkpt><trkpt lat="45.975857768913926" lon="12.311037396326494"><ele>118.0</ele><time>2026-04-23T11:16:33Z</time></trkpt><trkpt lat="45.97589795599655" lon="12.31096103940858"><ele>118.0</ele><time>2026-04-23T11:16:35Z</time></trkpt><trkpt lat="45.975946280661184" lon="12.310896701314741"><ele>118.00000000000001</ele><time>2026-04-23T11:16:37Z</time></trkpt><trkpt lat="45.97600499695507" lon="12.310835718047004"><ele>118.0</ele><time>2026-04-23T11:16:39Z</time></trkpt><trkpt lat="45.97606799344269" lon="12.310793230171868"><ele>118.0</ele><time>2026-04-23T11:16:41Z</time></trkpt><trkpt lat="45.97613966891899" lon="12.310750974405924"><ele>118.0</ele><time>2026-04-23T11:16:43Z</time></trkpt><trkpt lat="45.97621101203697" lon="12.310703529136632"><ele>118.00000000000001</ele><time>2026-04-23T11:16:44.999Z</time></trkpt><trkpt lat="45.97628170030459" lon="12.310668852627494"><ele>118.0</ele><time>2026-04-23T11:16:46.999Z</time></trkpt><trkpt lat="45.976354989856794" lon="12.310632378490773"><ele>118.00000000000001</ele><time>2026-04-23T11:16:48.999Z</time></trkpt><trkpt lat="45.97643274947413" lon="12.310599674515492"><ele>118.0</ele><time>2026-04-23T11:16:50.999Z</time></trkpt><trkpt lat="45.97650926529491" lon="12.310573471454266"><ele>118.0</ele><time>2026-04-23T11:16:52.999Z</time></trkpt><trkpt lat="45.9765868876151" lon="12.310545041024545"><ele>118.0</ele><time>2026-04-23T11:16:54.999Z</time></trkpt><trkpt lat="45.97666887195527" lon="12.310524935523745"><ele>118.00000000000001</ele><time>2026-04-23T11:16:56.999Z</time></trkpt><trkpt lat="45.97675036831055" lon="12.310511643255948"><ele>118.0</ele><time>2026-04-23T11:16:58.999Z</time></trkpt><trkpt lat="45.976829343334586" lon="12.310518552662451"><ele>118.00000000000001</ele><time>2026-04-23T11:17:00.999Z</time></trkpt><trkpt lat="45.97690581842897" lon="12.310553218770531"><ele>118.0</ele><time>2026-04-23T11:17:02.999Z</time></trkpt><trkpt lat="45.97698133961304" lon="12.310592721088746"><ele>118.0</ele><time>2026-04-23T11:17:04.999Z</time></trkpt><trkpt lat="45.97705569926116" lon="12.310627264576283"><ele>118.0</ele><time>2026-04-23T11:17:06.999Z</time></trkpt><trkpt lat="45.9771272205733" lon="12.310665438743927"><ele>118.00000000000001</ele><time>2026-04-23T11:17:08.999Z</time></trkpt><trkpt lat="45.97723883158359" lon="12.310715054434006"><ele>118.0</ele><time>2026-04-23T11:17:11.999Z</time></trkpt><trkpt lat="45.977323372122925" lon="12.31074131562067"><ele>118.00000000000001</ele><time>2026-04-23T11:17:13.999Z</time></trkpt><trkpt lat="45.977391092779776" lon="12.31075212630257"><ele>118.0</ele><time>2026-04-23T11:17:15.999Z</time></trkpt><trkpt lat="45.97747849095807" lon="12.310741106856486"><ele>118.0</ele><time>2026-04-23T11:17:18.998Z</time></trkpt><trkpt lat="45.97756811057785" lon="12.310690621891178"><ele>118.0</ele><time>2026-04-23T11:17:21.998Z</time></trkpt><trkpt lat="45.9776340704712" lon="12.310625723739243"><ele>118.00000000000001</ele><time>2026-04-23T11:17:23.998Z</time></trkpt><trkpt lat="45.97769915724239" lon="12.310557332770527"><ele>118.0</ele><time>2026-04-23T11:17:25.998Z</time></trkpt><trkpt lat="45.97776408841906" lon="12.3104907322512"><ele>118.16666666666667</ele><time>2026-04-23T11:17:28Z</time></trkpt><trkpt lat="45.97782554934689" lon="12.310421329659185"><ele>118.33333333333334</ele><time>2026-04-23T11:17:30Z</time></trkpt><trkpt lat="45.97789017975024" lon="12.310355793534994"><ele>118.5</ele><time>2026-04-23T11:17:32Z</time></trkpt><trkpt lat="45.97795543805281" lon="12.310282586968123"><ele>118.66666666666666</ele><time>2026-04-23T11:17:34Z</time></trkpt><trkpt lat="45.97802231391275" lon="12.31021207263987"><ele>118.83333333333333</ele><time>2026-04-23T11:17:36Z</time></trkpt><trkpt lat="45.97809050994333" lon="12.310158772040436"><ele>119.0</ele><time>2026-04-23T11:17:38Z</time></trkpt><trkpt lat="45.97816520378126" lon="12.310131692145978"><ele>118.99999999999999</ele><time>2026-04-23T11:17:40Z</time></trkpt><trkpt lat="45.97824080638086" lon="12.31012678696114"><ele>119.0</ele><time>2026-04-23T11:17:42Z</time></trkpt><trkpt lat="45.978319027975544" lon="12.310150100372375"><ele>119.0</ele><time>2026-04-23T11:17:45Z</time></trkpt><trkpt lat="45.97838631664148" lon="12.310163993230775"><ele>119.0</ele><time>2026-04-23T11:17:47Z</time></trkpt><trkpt lat="45.97846825876412" lon="12.310176420882605"><ele>118.99999999999999</ele><time>2026-04-23T11:17:49Z</time></trkpt><trkpt lat="45.9785527678668" lon="12.31018316169156"><ele>119.0</ele><time>2026-04-23T11:17:51Z</time></trkpt><trkpt lat="45.97863461022651" lon="12.31019412339448"><ele>118.66666666666666</ele><time>2026-04-23T11:17:53Z</time></trkpt><trkpt lat="45.97871911130202" lon="12.31020487392051"><ele>118.33333333333333</ele><time>2026-04-23T11:17:55Z</time></trkpt><trkpt lat="45.97880484843971" lon="12.31019711096016"><ele>118.0</ele><time>2026-04-23T11:17:57Z</time></trkpt><trkpt lat="45.978877066215375" lon="12.310160767755265"><ele>117.66666666666666</ele><time>2026-04-23T11:17:59Z</time></trkpt><trkpt lat="45.97895881877134" lon="12.310090731988934"><ele>117.33333333333333</ele><time>2026-04-23T11:18:01Z</time></trkpt><trkpt lat="45.97901958870472" lon="12.30999981835382"><ele>117.0</ele><time>2026-04-23T11:18:03Z</time></trkpt><trkpt lat="45.979058307283644" lon="12.309898315556657"><ele>117.0</ele><time>2026-04-23T11:18:05Z</time></trkpt><trkpt lat="45.97909653602484" lon="12.309794936227204"><ele>117.0</ele><time>2026-04-23T11:18:08Z</time></trkpt><trkpt lat="45.9791294964645" lon="12.309712658419755"><ele>117.0</ele><time>2026-04-23T11:18:10Z</time></trkpt><trkpt lat="45.97918663740048" lon="12.309583418766183"><ele>117.0</ele><time>2026-04-23T11:18:11Z</time></trkpt><trkpt lat="45.97925781838408" lon="12.309513283747123"><ele>117.0</ele><time>2026-04-23T11:18:12.999Z</time></trkpt><trkpt lat="45.97932677463524" lon="12.309488687043899"><ele>117.0</ele><time>2026-04-23T11:18:14.999Z</time></trkpt><trkpt lat="45.97941136073631" lon="12.30949062585971"><ele>117.6</ele><time>2026-04-23T11:18:16.999Z</time></trkpt><trkpt lat="45.97949975046249" lon="12.309488432910737"><ele>118.19999999999999</ele><time>2026-04-23T11:18:18.999Z</time></trkpt><trkpt lat="45.97957817470494" lon="12.309496950264519"><ele>118.8</ele><time>2026-04-23T11:18:20.999Z</time></trkpt><trkpt lat="45.97973077054566" lon="12.309504303822212"><ele>119.4</ele><time>2026-04-23T11:18:24.999Z</time></trkpt><trkpt lat="45.979827146218206" lon="12.309488060683472"><ele>120.0</ele><time>2026-04-23T11:18:26.999Z</time></trkpt><trkpt lat="45.97988532152395" lon="12.309408391439343"><ele>120.0</ele><time>2026-04-23T11:18:28.999Z</time></trkpt><trkpt lat="45.97988626072254" lon="12.3093046508625"><ele>120.0</ele><time>2026-04-23T11:18:31.999Z</time></trkpt><trkpt lat="45.97987968691949" lon="12.3091892832127"><ele>120.0</ele><time>2026-04-23T11:18:35.999Z</time></trkpt><trkpt lat="45.979858447619584" lon="12.30908362184544"><ele>120.0</ele><time>2026-04-23T11:18:39.999Z</time></trkpt><trkpt lat="45.97985080616898" lon="12.308970111906795"><ele>120.0</ele><time>2026-04-23T11:18:42.999Z</time></trkpt><trkpt lat="45.97982018891172" lon="12.308870945327143"><ele>120.0</ele><time>2026-04-23T11:18:45.999Z</time></trkpt><trkpt lat="45.97974379109841" lon="12.308878839481244"><ele>120.0</ele><time>2026-04-23T11:18:47.999Z</time></trkpt><trkpt lat="45.979656183109654" lon="12.308902628699547"><ele>120.0</ele><time>2026-04-23T11:18:50.999Z</time></trkpt><trkpt lat="45.979571700018305" lon="12.308875647437402"><ele>120.0</ele><time>2026-04-23T11:18:53.999Z</time></trkpt><trkpt lat="45.97950626725805" lon="12.308893045859472"><ele>120.0</ele><time>2026-04-23T11:18:56.999Z</time></trkpt><trkpt lat="45.979525230100506" lon="12.309018308601361"><ele>120.0</ele><time>2026-04-23T11:18:59.999Z</time></trkpt><trkpt lat="45.97955248930908" lon="12.309133966972972"><ele>120.0</ele><time>2026-04-23T11:19:02.999Z</time></trkpt><trkpt lat="45.979573234835165" lon="12.309229052160475"><ele>120.0</ele><time>2026-04-23T11:19:04.999Z</time></trkpt><trkpt lat="45.979598279951276" lon="12.309328596385493"><ele>120.0</ele><time>2026-04-23T11:19:06.999Z</time></trkpt><trkpt lat="45.97962045517525" lon="12.30943381973433"><ele>120.0</ele><time>2026-04-23T11:19:08.999Z</time></trkpt><trkpt lat="45.97964395669422" lon="12.309537813468898"><ele>120.0</ele><time>2026-04-23T11:19:10.999Z</time></trkpt><trkpt lat="45.979665660511195" lon="12.30964480978816"><ele>120.0</ele><time>2026-04-23T11:19:12.999Z</time></trkpt><trkpt lat="45.97968871155666" lon="12.30976213334602"><ele>120.0</ele><time>2026-04-23T11:19:14.999Z</time></trkpt><trkpt lat="45.97971585624984" lon="12.309877325605774"><ele>119.66666666666667</ele><time>2026-04-23T11:19:16.999Z</time></trkpt><trkpt lat="45.97974701301195" lon="12.309992473969755"><ele>119.33333333333334</ele><time>2026-04-23T11:19:18.999Z</time></trkpt><trkpt lat="45.97977623858078" lon="12.310111407818242"><ele>119.0</ele><time>2026-04-23T11:19:20.998Z</time></trkpt><trkpt lat="45.97980984724592" lon="12.310232082205635"><ele>118.66666666666667</ele><time>2026-04-23T11:19:22.998Z</time></trkpt><trkpt lat="45.97984034566571" lon="12.310357507531817"><ele>118.33333333333334</ele><time>2026-04-23T11:19:24.998Z</time></trkpt><trkpt lat="45.979868538341954" lon="12.310460618993227"><ele>118.0</ele><time>2026-04-23T11:19:26.998Z</time></trkpt><trkpt lat="45.97989206552685" lon="12.310546682598323"><ele>118.00000000000001</ele><time>2026-04-23T11:19:28.998Z</time></trkpt><trkpt lat="45.97996790890818" lon="12.310613497903562"><ele>118.0</ele><time>2026-04-23T11:19:31.998Z</time></trkpt><trkpt lat="45.980010612487554" lon="12.310722365262649"><ele>118.0</ele><time>2026-04-23T11:19:35Z</time></trkpt><trkpt lat="45.97996444777446" lon="12.31082919643868"><ele>118.0</ele><time>2026-04-23T11:19:38Z</time></trkpt><trkpt lat="45.97998603669782" lon="12.310935629988709"><ele>118.00000000000001</ele><time>2026-04-23T11:19:40Z</time></trkpt><trkpt lat="45.98000566665301" lon="12.311034755503163"><ele>118.0</ele><time>2026-04-23T11:19:42Z</time></trkpt><trkpt lat="45.98003279498978" lon="12.311129375288441"><ele>118.00000000000001</ele><time>2026-04-23T11:19:44Z</time></trkpt><trkpt lat="45.98006034129632" lon="12.311238390052354"><ele>118.0</ele><time>2026-04-23T11:19:46Z</time></trkpt><trkpt lat="45.98009880587455" lon="12.311351823930636"><ele>118.0</ele><time>2026-04-23T11:19:48Z</time></trkpt><trkpt lat="45.98013060926715" lon="12.311474684429784"><ele>118.0</ele><time>2026-04-23T11:19:50Z</time></trkpt><trkpt lat="45.98016558972629" lon="12.311599747063372"><ele>118.00000000000001</ele><time>2026-04-23T11:19:52Z</time></trkpt><trkpt lat="45.98019397724992" lon="12.311710790125646"><ele>118.0</ele><time>2026-04-23T11:19:54Z</time></trkpt><trkpt lat="45.98022539873673" lon="12.311813533270527"><ele>118.00000000000001</ele><time>2026-04-23T11:19:56Z</time></trkpt><trkpt lat="45.98025111267019" lon="12.311937966311177"><ele>118.0</ele><time>2026-04-23T11:19:58Z</time></trkpt><trkpt lat="45.9802799242462" lon="12.31204836182152"><ele>118.0</ele><time>2026-04-23T11:20:00Z</time></trkpt><trkpt lat="45.98030983979602" lon="12.312162555123399"><ele>118.0</ele><time>2026-04-23T11:20:02Z</time></trkpt><trkpt lat="45.980338748415996" lon="12.312291062928203"><ele>118.00000000000001</ele><time>2026-04-23T11:20:04Z</time></trkpt><trkpt lat="45.980365591880194" lon="12.312413673206326"><ele>118.0</ele><time>2026-04-23T11:20:06Z</time></trkpt><trkpt lat="45.9803954193059" lon="12.312529276957044"><ele>117.83333333333334</ele><time>2026-04-23T11:20:08Z</time></trkpt><trkpt lat="45.980418326488675" lon="12.312630079710718"><ele>117.66666666666667</ele><time>2026-04-23T11:20:10Z</time></trkpt><trkpt lat="45.980443317150346" lon="12.312746749416753"><ele>117.5</ele><time>2026-04-23T11:20:12Z</time></trkpt><trkpt lat="45.980468052574686" lon="12.31286380155294"><ele>117.33333333333334</ele><time>2026-04-23T11:20:14Z</time></trkpt><trkpt lat="45.980501300013756" lon="12.312982526016041"><ele>117.16666666666667</ele><time>2026-04-23T11:20:16Z</time></trkpt><trkpt lat="45.980531550177766" lon="12.313095620988157"><ele>117.0</ele><time>2026-04-23T11:20:18Z</time></trkpt><trkpt lat="45.980556408800744" lon="12.313223669818818"><ele>116.83333333333333</ele><time>2026-04-23T11:20:19.999Z</time></trkpt><trkpt lat="45.980581660429586" lon="12.313350711045217"><ele>116.66666666666666</ele><time>2026-04-23T11:20:21.999Z</time></trkpt><trkpt lat="45.98061133712674" lon="12.313469448442344"><ele>116.5</ele><time>2026-04-23T11:20:23.999Z</time></trkpt><trkpt lat="45.98063936344911" lon="12.313578987692042"><ele>116.33333333333333</ele><time>2026-04-23T11:20:25.999Z</time></trkpt><trkpt lat="45.980669471883274" lon="12.313698715328897"><ele>116.16666666666666</ele><time>2026-04-23T11:20:27.999Z</time></trkpt><trkpt lat="45.98069549345636" lon="12.313807746973826"><ele>116.0</ele><time>2026-04-23T11:20:29.999Z</time></trkpt><trkpt lat="45.980718088350315" lon="12.313918504042448"><ele>115.83333333333333</ele><time>2026-04-23T11:20:31.999Z</time></trkpt><trkpt lat="45.98075273442336" lon="12.31402637055813"><ele>115.66666666666666</ele><time>2026-04-23T11:20:33.999Z</time></trkpt><trkpt lat="45.98078041398277" lon="12.314140178622193"><ele>115.5</ele><time>2026-04-23T11:20:35.999Z</time></trkpt><trkpt lat="45.980802404650916" lon="12.31425516828551"><ele>115.33333333333334</ele><time>2026-04-23T11:20:37.999Z</time></trkpt><trkpt lat="45.98082379429529" lon="12.314364778431827"><ele>115.16666666666667</ele><time>2026-04-23T11:20:39.999Z</time></trkpt><trkpt lat="45.980855466836104" lon="12.31448297666016"><ele>115.0</ele><time>2026-04-23T11:20:41.999Z</time></trkpt><trkpt lat="45.98088591518713" lon="12.314601892790641"><ele>115.50000000000001</ele><time>2026-04-23T11:20:43.999Z</time></trkpt><trkpt lat="45.980918779313484" lon="12.314716380314863"><ele>116.0</ele><time>2026-04-23T11:20:45.999Z</time></trkpt><trkpt lat="45.980951945625606" lon="12.31482904453067"><ele>116.5</ele><time>2026-04-23T11:20:47.999Z</time></trkpt><trkpt lat="45.98098528867208" lon="12.314952362347121"><ele>117.0</ele><time>2026-04-23T11:20:49.999Z</time></trkpt><trkpt lat="45.98101537686043" lon="12.315066319934694"><ele>117.50000000000001</ele><time>2026-04-23T11:20:51.999Z</time></trkpt><trkpt lat="45.98105103045688" lon="12.315179199037793"><ele>118.0</ele><time>2026-04-23T11:20:53.999Z</time></trkpt><trkpt lat="45.98108774156035" lon="12.315285364015084"><ele>118.50000000000001</ele><time>2026-04-23T11:20:55.999Z</time></trkpt><trkpt lat="45.9811436434502" lon="12.315351113594769"><ele>119.0</ele><time>2026-04-23T11:20:57.999Z</time></trkpt><trkpt lat="45.981222680097794" lon="12.315343892761195"><ele>119.5</ele><time>2026-04-23T11:20:59.999Z</time></trkpt><trkpt lat="45.98130165020945" lon="12.315289082515482"><ele>120.0</ele><time>2026-04-23T11:21:01.999Z</time></trkpt><trkpt lat="45.981367910240415" lon="12.315200285832839"><ele>120.50000000000001</ele><time>2026-04-23T11:21:03.999Z</time></trkpt><trkpt lat="45.98143484377242" lon="12.315107676932918"><ele>121.0</ele><time>2026-04-23T11:21:05.999Z</time></trkpt><trkpt lat="45.98149729386623" lon="12.315020882926516"><ele>121.00000000000001</ele><time>2026-04-23T11:21:07.999Z</time></trkpt><trkpt lat="45.981555275888155" lon="12.31493406184023"><ele>121.0</ele><time>2026-04-23T11:21:09.999Z</time></trkpt><trkpt lat="45.981611167457096" lon="12.314862661875818"><ele>121.0</ele><time>2026-04-23T11:21:11.999Z</time></trkpt><trkpt lat="45.98166998800351" lon="12.314786002876385"><ele>121.0</ele><time>2026-04-23T11:21:13.999Z</time></trkpt><trkpt lat="45.9817301321458" lon="12.314702447455367"><ele>121.00000000000001</ele><time>2026-04-23T11:21:15.999Z</time></trkpt><trkpt lat="45.98179251054239" lon="12.314619910514613"><ele>121.0</ele><time>2026-04-23T11:21:17.999Z</time></trkpt><trkpt lat="45.981855772693095" lon="12.31453442451624"><ele>120.83333333333334</ele><time>2026-04-23T11:21:19.999Z</time></trkpt><trkpt lat="45.981917887986164" lon="12.31444834423619"><ele>120.66666666666667</ele><time>2026-04-23T11:21:21.999Z</time></trkpt><trkpt lat="45.98198089288767" lon="12.31436217387303"><ele>120.5</ele><time>2026-04-23T11:21:23.998Z</time></trkpt><trkpt lat="45.98204257010118" lon="12.314280704773815"><ele>120.33333333333334</ele><time>2026-04-23T11:21:25.998Z</time></trkpt><trkpt lat="45.982098038271936" lon="12.314203761874733"><ele>120.16666666666667</ele><time>2026-04-23T11:21:27.998Z</time></trkpt><trkpt lat="45.98214686483439" lon="12.314137601288873"><ele>120.0</ele><time>2026-04-23T11:21:29.998Z</time></trkpt><trkpt lat="45.982211146863456" lon="12.314049074422865"><ele>120.0</ele><time>2026-04-23T11:21:32.998Z</time></trkpt><trkpt lat="45.98227865912479" lon="12.31395847563847"><ele>120.0</ele><time>2026-04-23T11:21:35.998Z</time></trkpt><trkpt lat="45.982327153249166" lon="12.313897281324586"><ele>120.0</ele><time>2026-04-23T11:21:37.998Z</time></trkpt><trkpt lat="45.98237739520209" lon="12.313818571526975"><ele>120.0</ele><time>2026-04-23T11:21:40Z</time></trkpt><trkpt lat="45.9824043090596" lon="12.313719792918814"><ele>120.0</ele><time>2026-04-23T11:21:42Z</time></trkpt><trkpt lat="45.982412644135465" lon="12.313624105879125"><ele>120.0</ele><time>2026-04-23T11:21:44Z</time></trkpt><trkpt lat="45.982481574374724" lon="12.31359953014792"><ele>120.0</ele><time>2026-04-23T11:21:48Z</time></trkpt><trkpt lat="45.98249888536504" lon="12.313715888495873"><ele>119.8</ele><time>2026-04-23T11:21:50Z</time></trkpt><trkpt lat="45.98254766567327" lon="12.313811185745836"><ele>119.6</ele><time>2026-04-23T11:21:52Z</time></trkpt><trkpt lat="45.98263594565491" lon="12.31386562140535"><ele>119.4</ele><time>2026-04-23T11:21:54Z</time></trkpt><trkpt lat="45.982712711579765" lon="12.313946177934547"><ele>119.2</ele><time>2026-04-23T11:21:56Z</time></trkpt><trkpt lat="45.98277948865839" lon="12.314047159244405"><ele>119.0</ele><time>2026-04-23T11:21:58Z</time></trkpt><trkpt lat="45.98284425192273" lon="12.31414228745209"><ele>118.99999999999999</ele><time>2026-04-23T11:22:00Z</time></trkpt><trkpt lat="45.98290546753028" lon="12.314232694210574"><ele>119.0</ele><time>2026-04-23T11:22:02Z</time></trkpt><trkpt lat="45.98295975120272" lon="12.314323284152874"><ele>119.0</ele><time>2026-04-23T11:22:04Z</time></trkpt><trkpt lat="45.983013418272805" lon="12.314403525353141"><ele>119.0</ele><time>2026-04-23T11:22:06Z</time></trkpt><trkpt lat="45.98306586219055" lon="12.314481571531429"><ele>118.99999999999999</ele><time>2026-04-23T11:22:08Z</time></trkpt><trkpt lat="45.98312468253107" lon="12.314579351634688"><ele>119.0</ele><time>2026-04-23T11:22:10Z</time></trkpt><trkpt lat="45.98318762325528" lon="12.314667519884665"><ele>118.99999999999999</ele><time>2026-04-23T11:22:12Z</time></trkpt><trkpt lat="45.98323896950979" lon="12.314748513041751"><ele>119.0</ele><time>2026-04-23T11:22:14Z</time></trkpt><trkpt lat="45.983296300718585" lon="12.314831476612259"><ele>119.0</ele><time>2026-04-23T11:22:16Z</time></trkpt><trkpt lat="45.983347804526204" lon="12.314912415154765"><ele>119.0</ele><time>2026-04-23T11:22:18Z</time></trkpt><trkpt lat="45.98339321918368" lon="12.314983870293295"><ele>118.99999999999999</ele><time>2026-04-23T11:22:20Z</time></trkpt><trkpt lat="45.983446874751685" lon="12.315067144353579"><ele>119.0</ele><time>2026-04-23T11:22:22Z</time></trkpt><trkpt lat="45.9835013026789" lon="12.315160622005981"><ele>118.99999999999999</ele><time>2026-04-23T11:22:24Z</time></trkpt><trkpt lat="45.98354635147898" lon="12.315269258692537"><ele>119.0</ele><time>2026-04-23T11:22:25.999Z</time></trkpt><trkpt lat="45.98358995731561" lon="12.315385827842428"><ele>119.0</ele><time>2026-04-23T11:22:27.999Z</time></trkpt><trkpt lat="45.9836269236505" lon="12.315512256606414"><ele>119.0</ele><time>2026-04-23T11:22:29.999Z</time></trkpt><trkpt lat="45.9836558755087" lon="12.315629433856365"><ele>118.99999999999999</ele><time>2026-04-23T11:22:31.999Z</time></trkpt><trkpt lat="45.98367496165221" lon="12.315731722568383"><ele>119.0</ele><time>2026-04-23T11:22:33.999Z</time></trkpt><trkpt lat="45.98371946150067" lon="12.315837801895174"><ele>118.99999999999999</ele><time>2026-04-23T11:22:36.999Z</time></trkpt><trkpt lat="45.98378659595902" lon="12.315831691873116"><ele>119.0</ele><time>2026-04-23T11:22:38.999Z</time></trkpt><trkpt lat="45.983846048176986" lon="12.315749294637996"><ele>119.0</ele><time>2026-04-23T11:22:40.999Z</time></trkpt><trkpt lat="45.98389773961441" lon="12.31566134939767"><ele>119.0</ele><time>2026-04-23T11:22:42.999Z</time></trkpt><trkpt lat="45.98395157758005" lon="12.315579198910964"><ele>118.99999999999999</ele><time>2026-04-23T11:22:44.999Z</time></trkpt><trkpt lat="45.98400036226727" lon="12.315504964837467"><ele>119.0</ele><time>2026-04-23T11:22:46.999Z</time></trkpt><trkpt lat="45.98404895312728" lon="12.31542572850224"><ele>119.0</ele><time>2026-04-23T11:22:48.999Z</time></trkpt><trkpt lat="45.98412353164244" lon="12.315330620990956"><ele>119.0</ele><time>2026-04-23T11:22:51.999Z</time></trkpt><trkpt lat="45.98418418484456" lon="12.315247066433228"><ele>119.0</ele><time>2026-04-23T11:22:54.999Z</time></trkpt><trkpt lat="45.98424317454545" lon="12.315200592357074"><ele>119.0</ele><time>2026-04-23T11:22:57.999Z</time></trkpt><trkpt lat="45.984297345602776" lon="12.315120164595612"><ele>119.0</ele><time>2026-04-23T11:23:01.999Z</time></trkpt><trkpt lat="45.98427426083983" lon="12.315031855613594"><ele>119.0</ele><time>2026-04-23T11:23:07.999Z</time></trkpt></trkseg></trk></gpx>